<?xml version="1.0" encoding="UTF-8" standalone="no" ?><gpx xmlns="http://www.topografix.com/GPX/1/1" xmlns:gpxx="http://www.garmin.com/xmlschemas/GpxExtensions/v3" xmlns:wptx1="http://www.garmin.com/xmlschemas/WaypointExtension/v1" xmlns:gpxtpx="http://www.garmin.com/xmlschemas/TrackPointExtension/v1" creator="Dakota 20" version="1.1" xmlns:xsi="http://www.w3.org/2001/XMLSchema-instance" xsi:schemaLocation="http://www.topografix.com/GPX/1/1 http://www.topografix.com/GPX/1/1/gpx.xsd http://www.garmin.com/xmlschemas/GpxExtensions/v3 http://www8.garmin.com/xmlschemas/GpxExtensionsv3.xsd http://www.garmin.com/xmlschemas/WaypointExtension/v1 http://www8.garmin.com/xmlschemas/WaypointExtensionv1.xsd http://www.garmin.com/xmlschemas/TrackPointExtension/v1 http://www.garmin.com/xmlschemas/TrackPointExtensionv1.xsd"><metadata><link href="http://www.garmin.com"><text>Garmin International</text></link><time>2014-09-10T15:46:39Z</time></metadata><trk><name>Current Track: 10 SEP 2014 10:04</name><extensions><gpxx:TrackExtension><gpxx:DisplayColor>Cyan</gpxx:DisplayColor></gpxx:TrackExtension></extensions><trkseg><trkpt lat="51.9778670836" lon="-2.3610105459"><ele>87.14</ele><time>2014-09-10T09:04:23Z</time></trkpt><trkpt lat="51.9778655749" lon="-2.3610128928"><ele>85.21</ele><time>2014-09-10T09:04:29Z</time></trkpt><trkpt lat="51.9778657425" lon="-2.3610122222"><ele>83.29</ele><time>2014-09-10T09:04:32Z</time></trkpt><trkpt lat="51.9778859429" lon="-2.3610108811"><ele>87.14</ele><time>2014-09-10T09:04:35Z</time></trkpt><trkpt lat="51.9779535010" lon="-2.3609754257"><ele>86.18</ele><time>2014-09-10T09:04:41Z</time></trkpt><trkpt lat="51.9779778086" lon="-2.3609519564"><ele>86.66</ele><time>2014-09-10T09:04:43Z</time></trkpt><trkpt lat="51.9780619629" lon="-2.3607759364"><ele>86.18</ele><time>2014-09-10T09:04:56Z</time></trkpt><trkpt lat="51.9780664053" lon="-2.3607697338"><ele>86.18</ele><time>2014-09-10T09:04:57Z</time></trkpt><trkpt lat="51.9780876953" lon="-2.3607164249"><ele>86.18</ele><time>2014-09-10T09:05:10Z</time></trkpt><trkpt lat="51.9781655632" lon="-2.3607371282"><ele>85.21</ele><time>2014-09-10T09:05:27Z</time></trkpt><trkpt lat="51.9782857597" lon="-2.3607574124"><ele>86.18</ele><time>2014-09-10T09:05:38Z</time></trkpt><trkpt lat="51.9783448521" lon="-2.3607521318"><ele>86.66</ele><time>2014-09-10T09:05:44Z</time></trkpt><trkpt lat="51.9783627894" lon="-2.3607504554"><ele>81.85</ele><time>2014-09-10T09:05:46Z</time></trkpt><trkpt lat="51.9783725962" lon="-2.3607488628"><ele>87.14</ele><time>2014-09-10T09:05:47Z</time></trkpt><trkpt lat="51.9784700777" lon="-2.3607486952"><ele>87.14</ele><time>2014-09-10T09:06:02Z</time></trkpt><trkpt lat="51.9785103947" lon="-2.3607385531"><ele>87.14</ele><time>2014-09-10T09:06:06Z</time></trkpt><trkpt lat="51.9786740094" lon="-2.3607282434"><ele>86.66</ele><time>2014-09-10T09:06:20Z</time></trkpt><trkpt lat="51.9787175953" lon="-2.3607434146"><ele>87.14</ele><time>2014-09-10T09:06:25Z</time></trkpt><trkpt lat="51.9788087904" lon="-2.3607392237"><ele>88.10</ele><time>2014-09-10T09:06:34Z</time></trkpt><trkpt lat="51.9788579922" lon="-2.3607196938"><ele>87.14</ele><time>2014-09-10T09:06:45Z</time></trkpt><trkpt lat="51.9789081998" lon="-2.3606552370"><ele>86.18</ele><time>2014-09-10T09:06:50Z</time></trkpt><trkpt lat="51.9789615087" lon="-2.3606512137"><ele>86.66</ele><time>2014-09-10T09:06:56Z</time></trkpt><trkpt lat="51.9789720699" lon="-2.3606523871"><ele>88.10</ele><time>2014-09-10T09:06:57Z</time></trkpt><trkpt lat="51.9791218545" lon="-2.3607317638"><ele>88.10</ele><time>2014-09-10T09:07:17Z</time></trkpt><trkpt lat="51.9791301526" lon="-2.3607233819"><ele>88.10</ele><time>2014-09-10T09:07:36Z</time></trkpt><trkpt lat="51.9791325834" lon="-2.3607425764"><ele>89.54</ele><time>2014-09-10T09:07:52Z</time></trkpt><trkpt lat="51.9792278018" lon="-2.3609090410"><ele>87.14</ele><time>2014-09-10T09:08:04Z</time></trkpt><trkpt lat="51.9792339206" lon="-2.3609487712"><ele>88.58</ele><time>2014-09-10T09:08:06Z</time></trkpt><trkpt lat="51.9792296458" lon="-2.3610429838"><ele>87.14</ele><time>2014-09-10T09:08:12Z</time></trkpt><trkpt lat="51.9792624190" lon="-2.3613770865"><ele>89.06</ele><time>2014-09-10T09:08:31Z</time></trkpt><trkpt lat="51.9792919233" lon="-2.3615035694"><ele>90.02</ele><time>2014-09-10T09:08:38Z</time></trkpt><trkpt lat="51.9793107826" lon="-2.3615545314"><ele>86.66</ele><time>2014-09-10T09:08:41Z</time></trkpt><trkpt lat="51.9793319050" lon="-2.3616009671"><ele>90.02</ele><time>2014-09-10T09:08:43Z</time></trkpt><trkpt lat="51.9793692883" lon="-2.3617326468"><ele>87.62</ele><time>2014-09-10T09:08:49Z</time></trkpt><trkpt lat="51.9793748204" lon="-2.3617603071"><ele>88.58</ele><time>2014-09-10T09:08:50Z</time></trkpt><trkpt lat="51.9793973677" lon="-2.3618140351"><ele>91.46</ele><time>2014-09-10T09:08:53Z</time></trkpt><trkpt lat="51.9794053305" lon="-2.3618370015"><ele>88.10</ele><time>2014-09-10T09:08:55Z</time></trkpt><trkpt lat="51.9794153050" lon="-2.3618978541"><ele>91.46</ele><time>2014-09-10T09:09:01Z</time></trkpt><trkpt lat="51.9794143829" lon="-2.3619366623"><ele>88.58</ele><time>2014-09-10T09:09:04Z</time></trkpt><trkpt lat="51.9795072544" lon="-2.3622155283"><ele>90.98</ele><time>2014-09-10T09:09:23Z</time></trkpt><trkpt lat="51.9795051590" lon="-2.3622540850"><ele>89.06</ele><time>2014-09-10T09:09:27Z</time></trkpt><trkpt lat="51.9796551112" lon="-2.3625062127"><ele>90.50</ele><time>2014-09-10T09:09:45Z</time></trkpt><trkpt lat="51.9796738867" lon="-2.3625010997"><ele>89.06</ele><time>2014-09-10T09:09:51Z</time></trkpt><trkpt lat="51.9796943385" lon="-2.3624938913"><ele>88.10</ele><time>2014-09-10T09:09:53Z</time></trkpt><trkpt lat="51.9798454642" lon="-2.3624293506"><ele>87.62</ele><time>2014-09-10T09:10:11Z</time></trkpt><trkpt lat="51.9798524212" lon="-2.3624285962"><ele>88.10</ele><time>2014-09-10T09:10:12Z</time></trkpt><trkpt lat="51.9800081570" lon="-2.3623863515"><ele>89.54</ele><time>2014-09-10T09:10:20Z</time></trkpt><trkpt lat="51.9801292755" lon="-2.3624456115"><ele>89.54</ele><time>2014-09-10T09:10:31Z</time></trkpt><trkpt lat="51.9802933093" lon="-2.3626049515"><ele>88.58</ele><time>2014-09-10T09:10:51Z</time></trkpt><trkpt lat="51.9803033676" lon="-2.3626335338"><ele>85.69</ele><time>2014-09-10T09:11:01Z</time></trkpt><trkpt lat="51.9804497156" lon="-2.3628302570"><ele>85.21</ele><time>2014-09-10T09:11:11Z</time></trkpt><trkpt lat="51.9806017634" lon="-2.3629853223"><ele>84.73</ele><time>2014-09-10T09:11:25Z</time></trkpt><trkpt lat="51.9806494564" lon="-2.3631014116"><ele>83.29</ele><time>2014-09-10T09:11:32Z</time></trkpt><trkpt lat="51.9806143362" lon="-2.3632266372"><ele>82.81</ele><time>2014-09-10T09:11:50Z</time></trkpt><trkpt lat="51.9806450978" lon="-2.3632956203"><ele>82.81</ele><time>2014-09-10T09:12:08Z</time></trkpt><trkpt lat="51.9806534797" lon="-2.3633506056"><ele>82.81</ele><time>2014-09-10T09:12:12Z</time></trkpt><trkpt lat="51.9806794636" lon="-2.3635751568"><ele>80.89</ele><time>2014-09-10T09:12:34Z</time></trkpt><trkpt lat="51.9806804694" lon="-2.3636086844"><ele>80.89</ele><time>2014-09-10T09:12:48Z</time></trkpt><trkpt lat="51.9805409946" lon="-2.3635881487"><ele>78.48</ele><time>2014-09-10T09:13:04Z</time></trkpt><trkpt lat="51.9806577545" lon="-2.3638764024"><ele>77.04</ele><time>2014-09-10T09:13:25Z</time></trkpt><trkpt lat="51.9806870073" lon="-2.3639021348"><ele>76.56</ele><time>2014-09-10T09:13:28Z</time></trkpt><trkpt lat="51.9807877578" lon="-2.3641369119"><ele>73.68</ele><time>2014-09-10T09:13:48Z</time></trkpt><trkpt lat="51.9808308408" lon="-2.3644206394"><ele>71.76</ele><time>2014-09-10T09:14:10Z</time></trkpt><trkpt lat="51.9808762707" lon="-2.3645292688"><ele>71.27</ele><time>2014-09-10T09:14:17Z</time></trkpt><trkpt lat="51.9809025899" lon="-2.3647899460"><ele>71.76</ele><time>2014-09-10T09:14:29Z</time></trkpt><trkpt lat="51.9808856584" lon="-2.3648531456"><ele>71.76</ele><time>2014-09-10T09:14:32Z</time></trkpt><trkpt lat="51.9808127359" lon="-2.3651688918"><ele>69.83</ele><time>2014-09-10T09:14:51Z</time></trkpt><trkpt lat="51.9808147475" lon="-2.3652299121"><ele>70.79</ele><time>2014-09-10T09:14:58Z</time></trkpt><trkpt lat="51.9808095507" lon="-2.3653330095"><ele>68.87</ele><time>2014-09-10T09:15:08Z</time></trkpt><trkpt lat="51.9807757717" lon="-2.3654060159"><ele>68.39</ele><time>2014-09-10T09:15:13Z</time></trkpt><trkpt lat="51.9807736762" lon="-2.3654149007"><ele>69.35</ele><time>2014-09-10T09:15:14Z</time></trkpt><trkpt lat="51.9807309285" lon="-2.3655193392"><ele>69.35</ele><time>2014-09-10T09:15:32Z</time></trkpt><trkpt lat="51.9806528091" lon="-2.3656106181"><ele>68.39</ele><time>2014-09-10T09:15:44Z</time></trkpt><trkpt lat="51.9805870112" lon="-2.3656410445"><ele>66.95</ele><time>2014-09-10T09:15:52Z</time></trkpt><trkpt lat="51.9804883562" lon="-2.3656614963"><ele>67.43</ele><time>2014-09-10T09:15:58Z</time></trkpt><trkpt lat="51.9804226421" lon="-2.3657150567"><ele>68.39</ele><time>2014-09-10T09:16:00Z</time></trkpt><trkpt lat="51.9803335425" lon="-2.3658433836"><ele>66.95</ele><time>2014-09-10T09:16:09Z</time></trkpt><trkpt lat="51.9803005178" lon="-2.3659596406"><ele>66.95</ele><time>2014-09-10T09:16:14Z</time></trkpt><trkpt lat="51.9802181236" lon="-2.3661367502"><ele>67.43</ele><time>2014-09-10T09:16:33Z</time></trkpt><trkpt lat="51.9801373221" lon="-2.3664037976"><ele>67.43</ele><time>2014-09-10T09:16:54Z</time></trkpt><trkpt lat="51.9801033754" lon="-2.3664459586"><ele>53.97</ele><time>2014-09-10T09:17:11Z</time></trkpt><trkpt lat="51.9801037945" lon="-2.3664452881"><ele>68.39</ele><time>2014-09-10T09:17:12Z</time></trkpt><trkpt lat="51.9801041298" lon="-2.3664452881"><ele>65.51</ele><time>2014-09-10T09:17:13Z</time></trkpt><trkpt lat="51.9800685905" lon="-2.3667570949"><ele>65.03</ele><time>2014-09-10T09:17:29Z</time></trkpt><trkpt lat="51.9800685905" lon="-2.3668242339"><ele>65.99</ele><time>2014-09-10T09:17:33Z</time></trkpt><trkpt lat="51.9800630584" lon="-2.3668709211"><ele>65.51</ele><time>2014-09-10T09:17:37Z</time></trkpt><trkpt lat="51.9800110906" lon="-2.3669679835"><ele>64.55</ele><time>2014-09-10T09:17:43Z</time></trkpt><trkpt lat="51.9799684267" lon="-2.3671209533"><ele>64.55</ele><time>2014-09-10T09:17:56Z</time></trkpt><trkpt lat="51.9799525011" lon="-2.3671733402"><ele>65.99</ele><time>2014-09-10T09:17:58Z</time></trkpt><trkpt lat="51.9799385872" lon="-2.3672253080"><ele>62.62</ele><time>2014-09-10T09:18:01Z</time></trkpt><trkpt lat="51.9799323007" lon="-2.3672440834"><ele>64.07</ele><time>2014-09-10T09:18:02Z</time></trkpt><trkpt lat="51.9799120165" lon="-2.3672854900"><ele>65.03</ele><time>2014-09-10T09:18:04Z</time></trkpt><trkpt lat="51.9798634853" lon="-2.3673920240"><ele>63.58</ele><time>2014-09-10T09:18:25Z</time></trkpt><trkpt lat="51.9798584562" lon="-2.3674132302"><ele>65.03</ele><time>2014-09-10T09:18:27Z</time></trkpt><trkpt lat="51.9798528403" lon="-2.3674331792"><ele>63.10</ele><time>2014-09-10T09:18:29Z</time></trkpt><trkpt lat="51.9797844440" lon="-2.3676723987"><ele>64.55</ele><time>2014-09-10T09:18:48Z</time></trkpt><trkpt lat="51.9797564484" lon="-2.3678362649"><ele>63.58</ele><time>2014-09-10T09:18:56Z</time></trkpt><trkpt lat="51.9796585478" lon="-2.3681500833"><ele>63.10</ele><time>2014-09-10T09:19:17Z</time></trkpt><trkpt lat="51.9796598051" lon="-2.3683318868"><ele>62.14</ele><time>2014-09-10T09:19:34Z</time></trkpt><trkpt lat="51.9796199072" lon="-2.3684523348"><ele>62.14</ele><time>2014-09-10T09:19:52Z</time></trkpt><trkpt lat="51.9795846194" lon="-2.3685522471"><ele>62.14</ele><time>2014-09-10T09:20:02Z</time></trkpt><trkpt lat="51.9795488287" lon="-2.3687450308"><ele>59.74</ele><time>2014-09-10T09:20:13Z</time></trkpt><trkpt lat="51.9795314781" lon="-2.3688891996"><ele>60.22</ele><time>2014-09-10T09:20:20Z</time></trkpt><trkpt lat="51.9794702902" lon="-2.3691269103"><ele>59.74</ele><time>2014-09-10T09:20:36Z</time></trkpt><trkpt lat="51.9793837052" lon="-2.3694111407"><ele>59.74</ele><time>2014-09-10T09:20:55Z</time></trkpt><trkpt lat="51.9793652650" lon="-2.3695014976"><ele>59.26</ele><time>2014-09-10T09:21:00Z</time></trkpt><trkpt lat="51.9793187454" lon="-2.3698098678"><ele>57.82</ele><time>2014-09-10T09:21:17Z</time></trkpt><trkpt lat="51.9793149736" lon="-2.3698750790"><ele>59.74</ele><time>2014-09-10T09:21:22Z</time></trkpt><trkpt lat="51.9793015625" lon="-2.3699577246"><ele>57.82</ele><time>2014-09-10T09:21:28Z</time></trkpt><trkpt lat="51.9793070946" lon="-2.3700542841"><ele>57.34</ele><time>2014-09-10T09:21:39Z</time></trkpt><trkpt lat="51.9793056697" lon="-2.3700653482"><ele>58.78</ele><time>2014-09-10T09:21:41Z</time></trkpt><trkpt lat="51.9793019816" lon="-2.3702412844"><ele>59.26</ele><time>2014-09-10T09:21:56Z</time></trkpt><trkpt lat="51.9793059211" lon="-2.3703344073"><ele>55.89</ele><time>2014-09-10T09:21:59Z</time></trkpt><trkpt lat="51.9793311507" lon="-2.3706234153"><ele>56.37</ele><time>2014-09-10T09:22:18Z</time></trkpt><trkpt lat="51.9792579766" lon="-2.3708404228"><ele>56.86</ele><time>2014-09-10T09:22:37Z</time></trkpt><trkpt lat="51.9792655203" lon="-2.3710585199"><ele>55.89</ele><time>2014-09-10T09:22:55Z</time></trkpt><trkpt lat="51.9792218506" lon="-2.3712520581"><ele>56.37</ele><time>2014-09-10T09:23:13Z</time></trkpt><trkpt lat="51.9792018179" lon="-2.3713801336"><ele>56.86</ele><time>2014-09-10T09:23:28Z</time></trkpt><trkpt lat="51.9791348465" lon="-2.3716457561"><ele>54.93</ele><time>2014-09-10T09:23:49Z</time></trkpt><trkpt lat="51.9791107904" lon="-2.3717430700"><ele>55.89</ele><time>2014-09-10T09:23:56Z</time></trkpt><trkpt lat="51.9790028315" lon="-2.3719647713"><ele>53.97</ele><time>2014-09-10T09:24:14Z</time></trkpt><trkpt lat="51.9790078606" lon="-2.3722666036"><ele>54.93</ele><time>2014-09-10T09:24:34Z</time></trkpt><trkpt lat="51.9789684657" lon="-2.3724619020"><ele>54.45</ele><time>2014-09-10T09:24:51Z</time></trkpt><trkpt lat="51.9789185934" lon="-2.3726396821"><ele>54.93</ele><time>2014-09-10T09:25:03Z</time></trkpt><trkpt lat="51.9789111335" lon="-2.3729078192"><ele>53.97</ele><time>2014-09-10T09:25:22Z</time></trkpt><trkpt lat="51.9789034221" lon="-2.3730344698"><ele>54.45</ele><time>2014-09-10T09:25:34Z</time></trkpt><trkpt lat="51.9788788632" lon="-2.3733341228"><ele>54.93</ele><time>2014-09-10T09:25:51Z</time></trkpt><trkpt lat="51.9789147377" lon="-2.3734989110"><ele>54.45</ele><time>2014-09-10T09:26:09Z</time></trkpt><trkpt lat="51.9790794421" lon="-2.3737480212"><ele>52.53</ele><time>2014-09-10T09:26:30Z</time></trkpt><trkpt lat="51.9790650252" lon="-2.3739810381"><ele>53.49</ele><time>2014-09-10T09:26:49Z</time></trkpt><trkpt lat="51.9790636841" lon="-2.3739834689"><ele>50.61</ele><time>2014-09-10T09:26:50Z</time></trkpt><trkpt lat="51.9790959544" lon="-2.3741048388"><ele>53.49</ele><time>2014-09-10T09:26:57Z</time></trkpt><trkpt lat="51.9790986367" lon="-2.3743280489"><ele>52.53</ele><time>2014-09-10T09:27:14Z</time></trkpt><trkpt lat="51.9790593255" lon="-2.3745749798"><ele>52.53</ele><time>2014-09-10T09:27:32Z</time></trkpt><trkpt lat="51.9790628459" lon="-2.3747476470"><ele>53.01</ele><time>2014-09-10T09:27:48Z</time></trkpt><trkpt lat="51.9790568110" lon="-2.3748083320"><ele>53.01</ele><time>2014-09-10T09:27:52Z</time></trkpt><trkpt lat="51.9790950324" lon="-2.3750394210"><ele>52.53</ele><time>2014-09-10T09:28:10Z</time></trkpt><trkpt lat="51.9791397918" lon="-2.3752531596"><ele>52.05</ele><time>2014-09-10T09:28:28Z</time></trkpt><trkpt lat="51.9791331701" lon="-2.3753948137"><ele>52.05</ele><time>2014-09-10T09:28:39Z</time></trkpt><trkpt lat="51.9791377801" lon="-2.3754229769"><ele>50.61</ele><time>2014-09-10T09:28:41Z</time></trkpt><trkpt lat="51.9791823719" lon="-2.3756709136"><ele>49.65</ele><time>2014-09-10T09:29:00Z</time></trkpt><trkpt lat="51.9791942742" lon="-2.3759456724"><ele>51.57</ele><time>2014-09-10T09:29:19Z</time></trkpt><trkpt lat="51.9791953638" lon="-2.3759869952"><ele>49.16</ele><time>2014-09-10T09:29:21Z</time></trkpt><trkpt lat="51.9792608265" lon="-2.3761713970"><ele>49.16</ele><time>2014-09-10T09:29:40Z</time></trkpt><trkpt lat="51.9792803563" lon="-2.3762703035"><ele>50.13</ele><time>2014-09-10T09:29:59Z</time></trkpt><trkpt lat="51.9792953599" lon="-2.3763071839"><ele>50.61</ele><time>2014-09-10T09:30:18Z</time></trkpt><trkpt lat="51.9792931806" lon="-2.3763885722"><ele>49.16</ele><time>2014-09-10T09:30:37Z</time></trkpt><trkpt lat="51.9793045800" lon="-2.3764251173"><ele>49.65</ele><time>2014-09-10T09:30:58Z</time></trkpt><trkpt lat="51.9793153927" lon="-2.3765053321"><ele>50.61</ele><time>2014-09-10T09:31:22Z</time></trkpt><trkpt lat="51.9793225173" lon="-2.3765244428"><ele>50.13</ele><time>2014-09-10T09:31:37Z</time></trkpt><trkpt lat="51.9793288875" lon="-2.3765267059"><ele>49.65</ele><time>2014-09-10T09:32:09Z</time></trkpt><trkpt lat="51.9793807715" lon="-2.3765081819"><ele>50.13</ele><time>2014-09-10T09:32:19Z</time></trkpt><trkpt lat="51.9793954398" lon="-2.3765106127"><ele>49.65</ele><time>2014-09-10T09:32:21Z</time></trkpt><trkpt lat="51.9794156402" lon="-2.3765236884"><ele>45.32</ele><time>2014-09-10T09:32:27Z</time></trkpt><trkpt lat="51.9794154726" lon="-2.3765239399"><ele>37.15</ele><time>2014-09-10T09:32:28Z</time></trkpt><trkpt lat="51.9794154726" lon="-2.3765240237"><ele>50.61</ele><time>2014-09-10T09:32:29Z</time></trkpt><trkpt lat="51.9794155564" lon="-2.3765240237"><ele>48.20</ele><time>2014-09-10T09:32:30Z</time></trkpt><trkpt lat="51.9794152211" lon="-2.3765237723"><ele>42.92</ele><time>2014-09-10T09:32:36Z</time></trkpt><trkpt lat="51.9794184063" lon="-2.3765256163"><ele>56.37</ele><time>2014-09-10T09:32:37Z</time></trkpt><trkpt lat="51.9794191606" lon="-2.3765264545"><ele>49.16</ele><time>2014-09-10T09:32:38Z</time></trkpt><trkpt lat="51.9794241060" lon="-2.3765334114"><ele>50.61</ele><time>2014-09-10T09:32:45Z</time></trkpt><trkpt lat="51.9794241898" lon="-2.3765334953"><ele>49.16</ele><time>2014-09-10T09:32:47Z</time></trkpt><trkpt lat="51.9794196635" lon="-2.3765267897"><ele>49.16</ele><time>2014-09-10T09:32:50Z</time></trkpt><trkpt lat="51.9793984573" lon="-2.3765143845"><ele>50.61</ele><time>2014-09-10T09:32:52Z</time></trkpt><trkpt lat="51.9793766644" lon="-2.3764947709"><ele>46.76</ele><time>2014-09-10T09:32:55Z</time></trkpt><trkpt lat="51.9793664385" lon="-2.3764925916"><ele>48.68</ele><time>2014-09-10T09:32:56Z</time></trkpt><trkpt lat="51.9793408737" lon="-2.3765433021"><ele>48.20</ele><time>2014-09-10T09:33:01Z</time></trkpt><trkpt lat="51.9793478306" lon="-2.3765795119"><ele>49.65</ele><time>2014-09-10T09:33:03Z</time></trkpt><trkpt lat="51.9793500938" lon="-2.3766308092"><ele>49.16</ele><time>2014-09-10T09:33:19Z</time></trkpt><trkpt lat="51.9793265406" lon="-2.3765765782"><ele>49.65</ele><time>2014-09-10T09:33:45Z</time></trkpt><trkpt lat="51.9793231878" lon="-2.3765795957"><ele>48.68</ele><time>2014-09-10T09:33:47Z</time></trkpt><trkpt lat="51.9793185778" lon="-2.3765703756"><ele>49.16</ele><time>2014-09-10T09:34:13Z</time></trkpt><trkpt lat="51.9793547038" lon="-2.3766557872"><ele>48.68</ele><time>2014-09-10T09:34:43Z</time></trkpt><trkpt lat="51.9794148859" lon="-2.3767416179"><ele>48.68</ele><time>2014-09-10T09:34:50Z</time></trkpt><trkpt lat="51.9795004651" lon="-2.3770055640"><ele>49.16</ele><time>2014-09-10T09:35:04Z</time></trkpt><trkpt lat="51.9795163069" lon="-2.3770382535"><ele>48.68</ele><time>2014-09-10T09:35:06Z</time></trkpt><trkpt lat="51.9795317296" lon="-2.3770687636"><ele>49.65</ele><time>2014-09-10T09:35:08Z</time></trkpt><trkpt lat="51.9795838650" lon="-2.3771436140"><ele>51.09</ele><time>2014-09-10T09:35:13Z</time></trkpt><trkpt lat="51.9795992877" lon="-2.3771762196"><ele>47.72</ele><time>2014-09-10T09:35:15Z</time></trkpt><trkpt lat="51.9796067476" lon="-2.3771908041"><ele>48.20</ele><time>2014-09-10T09:35:16Z</time></trkpt><trkpt lat="51.9796268642" lon="-2.3772260919"><ele>49.65</ele><time>2014-09-10T09:35:18Z</time></trkpt><trkpt lat="51.9796506688" lon="-2.3772620503"><ele>50.61</ele><time>2014-09-10T09:35:20Z</time></trkpt><trkpt lat="51.9797048159" lon="-2.3773855995"><ele>52.05</ele><time>2014-09-10T09:35:26Z</time></trkpt><trkpt lat="51.9797289558" lon="-2.3774220608"><ele>48.20</ele><time>2014-09-10T09:35:29Z</time></trkpt><trkpt lat="51.9797379244" lon="-2.3774331249"><ele>49.65</ele><time>2014-09-10T09:35:30Z</time></trkpt><trkpt lat="51.9797793310" lon="-2.3774933070"><ele>53.01</ele><time>2014-09-10T09:35:34Z</time></trkpt><trkpt lat="51.9798582047" lon="-2.3776193708"><ele>49.65</ele><time>2014-09-10T09:35:42Z</time></trkpt><trkpt lat="51.9798948336" lon="-2.3776750267"><ele>52.53</ele><time>2014-09-10T09:35:46Z</time></trkpt><trkpt lat="51.9799280260" lon="-2.3777798843"><ele>53.01</ele><time>2014-09-10T09:35:51Z</time></trkpt><trkpt lat="51.9799489807" lon="-2.3778248113"><ele>50.61</ele><time>2014-09-10T09:35:57Z</time></trkpt><trkpt lat="51.9800664950" lon="-2.3781600874"><ele>51.57</ele><time>2014-09-10T09:36:15Z</time></trkpt><trkpt lat="51.9801648147" lon="-2.3783892486"><ele>54.45</ele><time>2014-09-10T09:36:29Z</time></trkpt><trkpt lat="51.9801835064" lon="-2.3784503527"><ele>50.61</ele><time>2014-09-10T09:36:32Z</time></trkpt><trkpt lat="51.9801893737" lon="-2.3784698825"><ele>50.13</ele><time>2014-09-10T09:36:33Z</time></trkpt><trkpt lat="51.9802151062" lon="-2.3785276338"><ele>52.05</ele><time>2014-09-10T09:36:36Z</time></trkpt><trkpt lat="51.9802314509" lon="-2.3785674479"><ele>53.01</ele><time>2014-09-10T09:36:38Z</time></trkpt><trkpt lat="51.9803392421" lon="-2.3788671009"><ele>49.65</ele><time>2014-09-10T09:36:56Z</time></trkpt><trkpt lat="51.9803692494" lon="-2.3789734673"><ele>53.01</ele><time>2014-09-10T09:37:00Z</time></trkpt><trkpt lat="51.9804181997" lon="-2.3790893890"><ele>53.97</ele><time>2014-09-10T09:37:06Z</time></trkpt><trkpt lat="51.9804290961" lon="-2.3791340645"><ele>50.61</ele><time>2014-09-10T09:37:09Z</time></trkpt><trkpt lat="51.9804384001" lon="-2.3791532591"><ele>51.57</ele><time>2014-09-10T09:37:10Z</time></trkpt><trkpt lat="51.9805123284" lon="-2.3793146107"><ele>54.93</ele><time>2014-09-10T09:37:18Z</time></trkpt><trkpt lat="51.9805305172" lon="-2.3793522455"><ele>51.57</ele><time>2014-09-10T09:37:21Z</time></trkpt><trkpt lat="51.9806087203" lon="-2.3795904592"><ele>54.45</ele><time>2014-09-10T09:37:32Z</time></trkpt><trkpt lat="51.9806309324" lon="-2.3796542455"><ele>52.05</ele><time>2014-09-10T09:37:36Z</time></trkpt><trkpt lat="51.9807069562" lon="-2.3797943909"><ele>55.89</ele><time>2014-09-10T09:37:44Z</time></trkpt><trkpt lat="51.9807238039" lon="-2.3798357975"><ele>52.53</ele><time>2014-09-10T09:37:47Z</time></trkpt><trkpt lat="51.9807300903" lon="-2.3798517231"><ele>53.01</ele><time>2014-09-10T09:37:48Z</time></trkpt><trkpt lat="51.9807471056" lon="-2.3799241427"><ele>54.45</ele><time>2014-09-10T09:37:51Z</time></trkpt><trkpt lat="51.9808289967" lon="-2.3801182676"><ele>53.01</ele><time>2014-09-10T09:38:03Z</time></trkpt><trkpt lat="51.9808716606" lon="-2.3802334350"><ele>55.89</ele><time>2014-09-10T09:38:08Z</time></trkpt><trkpt lat="51.9809398893" lon="-2.3804434855"><ele>53.97</ele><time>2014-09-10T09:38:19Z</time></trkpt><trkpt lat="51.9809524622" lon="-2.3805071879"><ele>56.37</ele><time>2014-09-10T09:38:22Z</time></trkpt><trkpt lat="51.9809868280" lon="-2.3806760833"><ele>54.93</ele><time>2014-09-10T09:38:31Z</time></trkpt><trkpt lat="51.9809904322" lon="-2.3806948587"><ele>56.37</ele><time>2014-09-10T09:38:33Z</time></trkpt><trkpt lat="51.9809969701" lon="-2.3806857225"><ele>56.37</ele><time>2014-09-10T09:38:56Z</time></trkpt><trkpt lat="51.9809989817" lon="-2.3806827888"><ele>56.37</ele><time>2014-09-10T09:39:00Z</time></trkpt><trkpt lat="51.9809993170" lon="-2.3806526978"><ele>56.37</ele><time>2014-09-10T09:39:22Z</time></trkpt><trkpt lat="51.9810196850" lon="-2.3806796037"><ele>56.86</ele><time>2014-09-10T09:39:30Z</time></trkpt><trkpt lat="51.9810436573" lon="-2.3806723952"><ele>54.93</ele><time>2014-09-10T09:39:33Z</time></trkpt><trkpt lat="51.9810506143" lon="-2.3806667794"><ele>55.41</ele><time>2014-09-10T09:39:34Z</time></trkpt><trkpt lat="51.9810699765" lon="-2.3806880694"><ele>57.34</ele><time>2014-09-10T09:39:39Z</time></trkpt><trkpt lat="51.9810751732" lon="-2.3807354271"><ele>56.37</ele><time>2014-09-10T09:39:42Z</time></trkpt><trkpt lat="51.9811738282" lon="-2.3809661809"><ele>59.26</ele><time>2014-09-10T09:39:53Z</time></trkpt><trkpt lat="51.9813374430" lon="-2.3812378384"><ele>59.74</ele><time>2014-09-10T09:40:11Z</time></trkpt><trkpt lat="51.9813599065" lon="-2.3812900577"><ele>57.82</ele><time>2014-09-10T09:40:14Z</time></trkpt><trkpt lat="51.9814393669" lon="-2.3814330529"><ele>61.18</ele><time>2014-09-10T09:40:23Z</time></trkpt><trkpt lat="51.9814631715" lon="-2.3814711906"><ele>58.30</ele><time>2014-09-10T09:40:26Z</time></trkpt><trkpt lat="51.9814898260" lon="-2.3815148603"><ele>62.14</ele><time>2014-09-10T09:40:29Z</time></trkpt><trkpt lat="51.9815969467" lon="-2.3817311972"><ele>58.78</ele><time>2014-09-10T09:40:44Z</time></trkpt><trkpt lat="51.9816260319" lon="-2.3817835841"><ele>61.66</ele><time>2014-09-10T09:40:47Z</time></trkpt><trkpt lat="51.9816617388" lon="-2.3818533216"><ele>60.22</ele><time>2014-09-10T09:40:52Z</time></trkpt><trkpt lat="51.9816690311" lon="-2.3818647210"><ele>61.18</ele><time>2014-09-10T09:40:54Z</time></trkpt><trkpt lat="51.9816713780" lon="-2.3818717618"><ele>61.66</ele><time>2014-09-10T09:40:55Z</time></trkpt><trkpt lat="51.9817063306" lon="-2.3819435947"><ele>63.10</ele><time>2014-09-10T09:41:00Z</time></trkpt><trkpt lat="51.9817164727" lon="-2.3819689918"><ele>59.74</ele><time>2014-09-10T09:41:02Z</time></trkpt><trkpt lat="51.9817219209" lon="-2.3819864262"><ele>60.70</ele><time>2014-09-10T09:41:03Z</time></trkpt><trkpt lat="51.9818032254" lon="-2.3821835686"><ele>64.07</ele><time>2014-09-10T09:41:15Z</time></trkpt><trkpt lat="51.9818182290" lon="-2.3822183535"><ele>60.22</ele><time>2014-09-10T09:41:18Z</time></trkpt><trkpt lat="51.9818253536" lon="-2.3822189402"><ele>65.51</ele><time>2014-09-10T09:41:23Z</time></trkpt><trkpt lat="51.9818286225" lon="-2.3822264001"><ele>62.14</ele><time>2014-09-10T09:41:24Z</time></trkpt><trkpt lat="51.9818340708" lon="-2.3822365422"><ele>60.70</ele><time>2014-09-10T09:41:25Z</time></trkpt><trkpt lat="51.9818619825" lon="-2.3822781164"><ele>63.58</ele><time>2014-09-10T09:41:28Z</time></trkpt><trkpt lat="51.9819547702" lon="-2.3824508674"><ele>62.62</ele><time>2014-09-10T09:41:41Z</time></trkpt><trkpt lat="51.9820022956" lon="-2.3826187570"><ele>64.07</ele><time>2014-09-10T09:41:58Z</time></trkpt><trkpt lat="51.9820061512" lon="-2.3827132210"><ele>64.55</ele><time>2014-09-10T09:42:16Z</time></trkpt><trkpt lat="51.9821139425" lon="-2.3829428852"><ele>66.47</ele><time>2014-09-10T09:42:33Z</time></trkpt><trkpt lat="51.9821226597" lon="-2.3829496745"><ele>65.51</ele><time>2014-09-10T09:42:35Z</time></trkpt><trkpt lat="51.9821339753" lon="-2.3829594813"><ele>66.47</ele><time>2014-09-10T09:42:37Z</time></trkpt><trkpt lat="51.9822355639" lon="-2.3831072543"><ele>67.43</ele><time>2014-09-10T09:42:47Z</time></trkpt><trkpt lat="51.9822999369" lon="-2.3832356650"><ele>68.39</ele><time>2014-09-10T09:42:59Z</time></trkpt><trkpt lat="51.9823435228" lon="-2.3834520858"><ele>67.91</ele><time>2014-09-10T09:43:14Z</time></trkpt><trkpt lat="51.9823520724" lon="-2.3834648263"><ele>71.76</ele><time>2014-09-10T09:43:16Z</time></trkpt><trkpt lat="51.9823576882" lon="-2.3834763095"><ele>68.39</ele><time>2014-09-10T09:43:17Z</time></trkpt><trkpt lat="51.9823643938" lon="-2.3834841885"><ele>68.39</ele><time>2014-09-10T09:43:18Z</time></trkpt><trkpt lat="51.9823943172" lon="-2.3835700192"><ele>72.24</ele><time>2014-09-10T09:43:28Z</time></trkpt><trkpt lat="51.9824076444" lon="-2.3835977633"><ele>67.91</ele><time>2014-09-10T09:43:30Z</time></trkpt><trkpt lat="51.9824145176" lon="-2.3836106714"><ele>71.76</ele><time>2014-09-10T09:43:31Z</time></trkpt><trkpt lat="51.9824178703" lon="-2.3836257588"><ele>71.27</ele><time>2014-09-10T09:43:32Z</time></trkpt><trkpt lat="51.9824219774" lon="-2.3836374935"><ele>70.31</ele><time>2014-09-10T09:43:34Z</time></trkpt><trkpt lat="51.9824223965" lon="-2.3836455401"><ele>72.24</ele><time>2014-09-10T09:43:36Z</time></trkpt><trkpt lat="51.9824225642" lon="-2.3836564366"><ele>68.87</ele><time>2014-09-10T09:43:38Z</time></trkpt><trkpt lat="51.9824234862" lon="-2.3836615495"><ele>71.76</ele><time>2014-09-10T09:43:39Z</time></trkpt><trkpt lat="51.9824639708" lon="-2.3837502301"><ele>74.16</ele><time>2014-09-10T09:43:48Z</time></trkpt><trkpt lat="51.9824692514" lon="-2.3837728612"><ele>70.79</ele><time>2014-09-10T09:43:49Z</time></trkpt><trkpt lat="51.9824835006" lon="-2.3838275950"><ele>74.16</ele><time>2014-09-10T09:43:51Z</time></trkpt><trkpt lat="51.9825207163" lon="-2.3839000147"><ele>74.64</ele><time>2014-09-10T09:43:58Z</time></trkpt><trkpt lat="51.9825267512" lon="-2.3839153536"><ele>71.27</ele><time>2014-09-10T09:44:00Z</time></trkpt><trkpt lat="51.9825400785" lon="-2.3839422595"><ele>75.12</ele><time>2014-09-10T09:44:02Z</time></trkpt><trkpt lat="51.9825507235" lon="-2.3839622084"><ele>72.72</ele><time>2014-09-10T09:44:04Z</time></trkpt><trkpt lat="51.9825618714" lon="-2.3840262461"><ele>73.68</ele><time>2014-09-10T09:44:08Z</time></trkpt><trkpt lat="51.9826202095" lon="-2.3841210455"><ele>75.60</ele><time>2014-09-10T09:44:16Z</time></trkpt><trkpt lat="51.9826461095" lon="-2.3842025176"><ele>76.08</ele><time>2014-09-10T09:44:21Z</time></trkpt><trkpt lat="51.9827034418" lon="-2.3843113985"><ele>76.08</ele><time>2014-09-10T09:44:40Z</time></trkpt><trkpt lat="51.9826944731" lon="-2.3843332753"><ele>74.64</ele><time>2014-09-10T09:45:05Z</time></trkpt><trkpt lat="51.9827321917" lon="-2.3844983988"><ele>74.16</ele><time>2014-09-10T09:45:15Z</time></trkpt><trkpt lat="51.9827387296" lon="-2.3845315073"><ele>76.08</ele><time>2014-09-10T09:45:17Z</time></trkpt><trkpt lat="51.9828181900" lon="-2.3847480956"><ele>73.68</ele><time>2014-09-10T09:45:34Z</time></trkpt><trkpt lat="51.9828865863" lon="-2.3849667795"><ele>72.72</ele><time>2014-09-10T09:45:50Z</time></trkpt><trkpt lat="51.9828904420" lon="-2.3849803582"><ele>72.72</ele><time>2014-09-10T09:45:51Z</time></trkpt><trkpt lat="51.9829962216" lon="-2.3852838669"><ele>73.68</ele><time>2014-09-10T09:46:12Z</time></trkpt><trkpt lat="51.9830201939" lon="-2.3855529260"><ele>73.68</ele><time>2014-09-10T09:46:32Z</time></trkpt><trkpt lat="51.9831244648" lon="-2.3856996931"><ele>71.76</ele><time>2014-09-10T09:46:45Z</time></trkpt><trkpt lat="51.9831275661" lon="-2.3857047223"><ele>74.16</ele><time>2014-09-10T09:46:47Z</time></trkpt><trkpt lat="51.9831973035" lon="-2.3859437741"><ele>72.24</ele><time>2014-09-10T09:47:08Z</time></trkpt><trkpt lat="51.9832146540" lon="-2.3859773017"><ele>74.16</ele><time>2014-09-10T09:47:11Z</time></trkpt><trkpt lat="51.9832360279" lon="-2.3860431835"><ele>72.72</ele><time>2014-09-10T09:47:19Z</time></trkpt><trkpt lat="51.9833325036" lon="-2.3863851652"><ele>73.68</ele><time>2014-09-10T09:47:38Z</time></trkpt><trkpt lat="51.9833836332" lon="-2.3865601793"><ele>77.04</ele><time>2014-09-10T09:47:50Z</time></trkpt><trkpt lat="51.9833870698" lon="-2.3865708243"><ele>73.20</ele><time>2014-09-10T09:47:51Z</time></trkpt><trkpt lat="51.9834946934" lon="-2.3868237901"><ele>75.12</ele><time>2014-09-10T09:48:12Z</time></trkpt><trkpt lat="51.9835881516" lon="-2.3870068509"><ele>74.64</ele><time>2014-09-10T09:48:31Z</time></trkpt><trkpt lat="51.9837262854" lon="-2.3873036541"><ele>73.68</ele><time>2014-09-10T09:48:52Z</time></trkpt><trkpt lat="51.9837992918" lon="-2.3874198273"><ele>75.60</ele><time>2014-09-10T09:49:01Z</time></trkpt><trkpt lat="51.9838875532" lon="-2.3876535986"><ele>76.08</ele><time>2014-09-10T09:49:19Z</time></trkpt><trkpt lat="51.9839048199" lon="-2.3876793310"><ele>75.12</ele><time>2014-09-10T09:49:21Z</time></trkpt><trkpt lat="51.9839634094" lon="-2.3877660837"><ele>74.64</ele><time>2014-09-10T09:49:28Z</time></trkpt><trkpt lat="51.9840259384" lon="-2.3878863640"><ele>74.16</ele><time>2014-09-10T09:49:37Z</time></trkpt><trkpt lat="51.9840533473" lon="-2.3879222386"><ele>75.60</ele><time>2014-09-10T09:49:40Z</time></trkpt><trkpt lat="51.9841598812" lon="-2.3880540859"><ele>73.20</ele><time>2014-09-10T09:49:56Z</time></trkpt><trkpt lat="51.9842336420" lon="-2.3881597817"><ele>73.68</ele><time>2014-09-10T09:50:17Z</time></trkpt><trkpt lat="51.9842684269" lon="-2.3881799821"><ele>72.72</ele><time>2014-09-10T09:50:37Z</time></trkpt><trkpt lat="51.9843348954" lon="-2.3883311916"><ele>78.48</ele><time>2014-09-10T09:50:51Z</time></trkpt><trkpt lat="51.9843406789" lon="-2.3883440159"><ele>72.72</ele><time>2014-09-10T09:50:52Z</time></trkpt><trkpt lat="51.9843692612" lon="-2.3884029407"><ele>69.83</ele><time>2014-09-10T09:50:56Z</time></trkpt><trkpt lat="51.9843675010" lon="-2.3884420842"><ele>72.72</ele><time>2014-09-10T09:51:00Z</time></trkpt><trkpt lat="51.9844211452" lon="-2.3886473570"><ele>71.27</ele><time>2014-09-10T09:51:15Z</time></trkpt><trkpt lat="51.9844975881" lon="-2.3889373709"><ele>73.20</ele><time>2014-09-10T09:51:33Z</time></trkpt><trkpt lat="51.9845741149" lon="-2.3891654424"><ele>74.16</ele><time>2014-09-10T09:51:49Z</time></trkpt><trkpt lat="51.9845850952" lon="-2.3891872354"><ele>72.24</ele><time>2014-09-10T09:51:51Z</time></trkpt><trkpt lat="51.9846745301" lon="-2.3894859664"><ele>72.72</ele><time>2014-09-10T09:52:08Z</time></trkpt><trkpt lat="51.9847440161" lon="-2.3897335678"><ele>71.76</ele><time>2014-09-10T09:52:26Z</time></trkpt><trkpt lat="51.9847627077" lon="-2.3899165448"><ele>72.72</ele><time>2014-09-10T09:52:35Z</time></trkpt><trkpt lat="51.9848053716" lon="-2.3899982683"><ele>71.76</ele><time>2014-09-10T09:52:45Z</time></trkpt><trkpt lat="51.9848247338" lon="-2.3902325425"><ele>72.24</ele><time>2014-09-10T09:52:55Z</time></trkpt><trkpt lat="51.9848261587" lon="-2.3902915511"><ele>70.79</ele><time>2014-09-10T09:52:58Z</time></trkpt><trkpt lat="51.9848407432" lon="-2.3903574329"><ele>70.31</ele><time>2014-09-10T09:53:04Z</time></trkpt><trkpt lat="51.9848763663" lon="-2.3907784559"><ele>70.31</ele><time>2014-09-10T09:53:27Z</time></trkpt><trkpt lat="51.9848688226" lon="-2.3908438347"><ele>66.95</ele><time>2014-09-10T09:53:31Z</time></trkpt><trkpt lat="51.9848688226" lon="-2.3908542283"><ele>70.31</ele><time>2014-09-10T09:53:32Z</time></trkpt><trkpt lat="51.9849277474" lon="-2.3910893407"><ele>68.87</ele><time>2014-09-10T09:53:51Z</time></trkpt><trkpt lat="51.9849461038" lon="-2.3913274705"><ele>67.91</ele><time>2014-09-10T09:54:08Z</time></trkpt><trkpt lat="51.9849507976" lon="-2.3914867267"><ele>67.43</ele><time>2014-09-10T09:54:20Z</time></trkpt><trkpt lat="51.9849936292" lon="-2.3918132018"><ele>66.95</ele><time>2014-09-10T09:54:37Z</time></trkpt><trkpt lat="51.9850277435" lon="-2.3922005296"><ele>65.51</ele><time>2014-09-10T09:54:58Z</time></trkpt><trkpt lat="51.9850591756" lon="-2.3924807366"><ele>64.55</ele><time>2014-09-10T09:55:18Z</time></trkpt><trkpt lat="51.9850613549" lon="-2.3928533122"><ele>64.07</ele><time>2014-09-10T09:55:34Z</time></trkpt><trkpt lat="51.9850875903" lon="-2.3930030968"><ele>63.10</ele><time>2014-09-10T09:55:49Z</time></trkpt><trkpt lat="51.9851336908" lon="-2.3932177573"><ele>62.62</ele><time>2014-09-10T09:56:05Z</time></trkpt><trkpt lat="51.9851638656" lon="-2.3934781831"><ele>63.10</ele><time>2014-09-10T09:56:21Z</time></trkpt><trkpt lat="51.9851633627" lon="-2.3938732222"><ele>61.66</ele><time>2014-09-10T09:56:42Z</time></trkpt><trkpt lat="51.9852193538" lon="-2.3941476457"><ele>61.18</ele><time>2014-09-10T09:57:01Z</time></trkpt><trkpt lat="51.9853159972" lon="-2.3943985999"><ele>61.18</ele><time>2014-09-10T09:57:20Z</time></trkpt><trkpt lat="51.9853836391" lon="-2.3946701735"><ele>60.70</ele><time>2014-09-10T09:57:39Z</time></trkpt><trkpt lat="51.9854132272" lon="-2.3948241491"><ele>61.66</ele><time>2014-09-10T09:57:59Z</time></trkpt><trkpt lat="51.9854092039" lon="-2.3948218022"><ele>61.18</ele><time>2014-09-10T09:58:00Z</time></trkpt><trkpt lat="51.9854526222" lon="-2.3949774541"><ele>60.22</ele><time>2014-09-10T09:58:18Z</time></trkpt><trkpt lat="51.9855027460" lon="-2.3951859958"><ele>59.74</ele><time>2014-09-10T09:58:33Z</time></trkpt><trkpt lat="51.9855334237" lon="-2.3952878360"><ele>58.30</ele><time>2014-09-10T09:58:49Z</time></trkpt><trkpt lat="51.9855062664" lon="-2.3954296578"><ele>58.30</ele><time>2014-09-10T09:59:05Z</time></trkpt><trkpt lat="51.9854850601" lon="-2.3955240380"><ele>57.82</ele><time>2014-09-10T09:59:21Z</time></trkpt><trkpt lat="51.9854869042" lon="-2.3955315817"><ele>57.82</ele><time>2014-09-10T09:59:45Z</time></trkpt><trkpt lat="51.9854767621" lon="-2.3955409694"><ele>58.30</ele><time>2014-09-10T10:00:04Z</time></trkpt><trkpt lat="51.9854750019" lon="-2.3955465015"><ele>57.82</ele><time>2014-09-10T10:00:40Z</time></trkpt><trkpt lat="51.9854817912" lon="-2.3955498543"><ele>57.82</ele><time>2014-09-10T10:01:08Z</time></trkpt><trkpt lat="51.9854817912" lon="-2.3955586553"><ele>57.82</ele><time>2014-09-10T10:01:38Z</time></trkpt><trkpt lat="51.9854735769" lon="-2.3955667857"><ele>57.82</ele><time>2014-09-10T10:02:06Z</time></trkpt><trkpt lat="51.9854683802" lon="-2.3955733236"><ele>57.82</ele><time>2014-09-10T10:02:34Z</time></trkpt><trkpt lat="51.9854690507" lon="-2.3955712281"><ele>57.82</ele><time>2014-09-10T10:03:04Z</time></trkpt><trkpt lat="51.9854656979" lon="-2.3955741618"><ele>57.82</ele><time>2014-09-10T10:03:36Z</time></trkpt><trkpt lat="51.9854629319" lon="-2.3955804482"><ele>57.82</ele><time>2014-09-10T10:04:06Z</time></trkpt><trkpt lat="51.9854901731" lon="-2.3955896683"><ele>57.34</ele><time>2014-09-10T10:04:30Z</time></trkpt><trkpt lat="51.9854927715" lon="-2.3955952842"><ele>56.86</ele><time>2014-09-10T10:05:03Z</time></trkpt><trkpt lat="51.9854931906" lon="-2.3955848906"><ele>57.82</ele><time>2014-09-10T10:05:34Z</time></trkpt><trkpt lat="51.9854471739" lon="-2.3955726530"><ele>56.86</ele><time>2014-09-10T10:05:57Z</time></trkpt><trkpt lat="51.9854861498" lon="-2.3956082761"><ele>56.86</ele><time>2014-09-10T10:06:22Z</time></trkpt><trkpt lat="51.9854921009" lon="-2.3956060968"><ele>57.82</ele><time>2014-09-10T10:06:45Z</time></trkpt><trkpt lat="51.9854513649" lon="-2.3956832942"><ele>57.34</ele><time>2014-09-10T10:07:09Z</time></trkpt><trkpt lat="51.9854866527" lon="-2.3956546281"><ele>56.86</ele><time>2014-09-10T10:07:31Z</time></trkpt><trkpt lat="51.9854767621" lon="-2.3956453241"><ele>56.86</ele><time>2014-09-10T10:08:01Z</time></trkpt><trkpt lat="51.9854806177" lon="-2.3956349306"><ele>56.37</ele><time>2014-09-10T10:08:32Z</time></trkpt><trkpt lat="51.9854902569" lon="-2.3956247885"><ele>56.86</ele><time>2014-09-10T10:08:56Z</time></trkpt><trkpt lat="51.9855028298" lon="-2.3956136405"><ele>56.37</ele><time>2014-09-10T10:09:23Z</time></trkpt><trkpt lat="51.9855096191" lon="-2.3956016544"><ele>56.37</ele><time>2014-09-10T10:09:51Z</time></trkpt><trkpt lat="51.9855123851" lon="-2.3955920991"><ele>56.37</ele><time>2014-09-10T10:10:23Z</time></trkpt><trkpt lat="51.9854988903" lon="-2.3955668695"><ele>55.89</ele><time>2014-09-10T10:10:41Z</time></trkpt><trkpt lat="51.9854896702" lon="-2.3955615051"><ele>52.53</ele><time>2014-09-10T10:10:45Z</time></trkpt><trkpt lat="51.9854898378" lon="-2.3955613375"><ele>54.45</ele><time>2014-09-10T10:10:46Z</time></trkpt><trkpt lat="51.9854901731" lon="-2.3955610860"><ele>62.14</ele><time>2014-09-10T10:10:47Z</time></trkpt><trkpt lat="51.9854904246" lon="-2.3955606669"><ele>54.93</ele><time>2014-09-10T10:10:48Z</time></trkpt><trkpt lat="51.9854910951" lon="-2.3955589905"><ele>58.78</ele><time>2014-09-10T10:10:50Z</time></trkpt><trkpt lat="51.9854973815" lon="-2.3955478426"><ele>56.86</ele><time>2014-09-10T10:10:53Z</time></trkpt><trkpt lat="51.9854523707" lon="-2.3955791909"><ele>56.37</ele><time>2014-09-10T10:11:01Z</time></trkpt><trkpt lat="51.9853251334" lon="-2.3957310710"><ele>56.86</ele><time>2014-09-10T10:11:15Z</time></trkpt><trkpt lat="51.9852399733" lon="-2.3958436400"><ele>55.89</ele><time>2014-09-10T10:11:24Z</time></trkpt><trkpt lat="51.9850222953" lon="-2.3959926702"><ele>56.86</ele><time>2014-09-10T10:11:44Z</time></trkpt><trkpt lat="51.9848378934" lon="-2.3961999547"><ele>56.86</ele><time>2014-09-10T10:12:04Z</time></trkpt><trkpt lat="51.9846534077" lon="-2.3963373341"><ele>54.93</ele><time>2014-09-10T10:12:23Z</time></trkpt><trkpt lat="51.9845361449" lon="-2.3963922355"><ele>54.45</ele><time>2014-09-10T10:12:42Z</time></trkpt><trkpt lat="51.9844363164" lon="-2.3964711931"><ele>52.53</ele><time>2014-09-10T10:13:00Z</time></trkpt><trkpt lat="51.9843093306" lon="-2.3964863643"><ele>50.61</ele><time>2014-09-10T10:13:15Z</time></trkpt><trkpt lat="51.9841725379" lon="-2.3964956682"><ele>51.09</ele><time>2014-09-10T10:13:29Z</time></trkpt><trkpt lat="51.9839704502" lon="-2.3965059780"><ele>50.61</ele><time>2014-09-10T10:13:51Z</time></trkpt><trkpt lat="51.9839277864" lon="-2.3965188023"><ele>53.01</ele><time>2014-09-10T10:13:56Z</time></trkpt><trkpt lat="51.9838235993" lon="-2.3965888750"><ele>52.53</ele><time>2014-09-10T10:14:13Z</time></trkpt><trkpt lat="51.9838201627" lon="-2.3965958320"><ele>52.05</ele><time>2014-09-10T10:14:20Z</time></trkpt><trkpt lat="51.9838157203" lon="-2.3966032919"><ele>56.37</ele><time>2014-09-10T10:14:26Z</time></trkpt><trkpt lat="51.9838149659" lon="-2.3966045491"><ele>52.53</ele><time>2014-09-10T10:14:27Z</time></trkpt><trkpt lat="51.9838058297" lon="-2.3966057226"><ele>53.01</ele><time>2014-09-10T10:14:43Z</time></trkpt><trkpt lat="51.9836639240" lon="-2.3966857698"><ele>54.45</ele><time>2014-09-10T10:15:00Z</time></trkpt><trkpt lat="51.9835499302" lon="-2.3967317864"><ele>53.49</ele><time>2014-09-10T10:15:15Z</time></trkpt><trkpt lat="51.9833438192" lon="-2.3968527373"><ele>53.01</ele><time>2014-09-10T10:15:31Z</time></trkpt><trkpt lat="51.9831499457" lon="-2.3969616182"><ele>53.97</ele><time>2014-09-10T10:15:48Z</time></trkpt><trkpt lat="51.9829577487" lon="-2.3970726784"><ele>53.97</ele><time>2014-09-10T10:16:05Z</time></trkpt><trkpt lat="51.9828549027" lon="-2.3971505463"><ele>53.49</ele><time>2014-09-10T10:16:22Z</time></trkpt><trkpt lat="51.9827861711" lon="-2.3971989099"><ele>53.01</ele><time>2014-09-10T10:16:28Z</time></trkpt><trkpt lat="51.9826442655" lon="-2.3973336909"><ele>53.01</ele><time>2014-09-10T10:16:46Z</time></trkpt><trkpt lat="51.9824576844" lon="-2.3973367922"><ele>53.01</ele><time>2014-09-10T10:17:01Z</time></trkpt><trkpt lat="51.9821804110" lon="-2.3973463476"><ele>53.01</ele><time>2014-09-10T10:17:24Z</time></trkpt><trkpt lat="51.9820794929" lon="-2.3973814677"><ele>53.49</ele><time>2014-09-10T10:17:37Z</time></trkpt><trkpt lat="51.9820684288" lon="-2.3974111397"><ele>51.57</ele><time>2014-09-10T10:17:40Z</time></trkpt><trkpt lat="51.9817966875" lon="-2.3974339385"><ele>51.09</ele><time>2014-09-10T10:18:01Z</time></trkpt><trkpt lat="51.9815204199" lon="-2.3974644486"><ele>50.13</ele><time>2014-09-10T10:18:25Z</time></trkpt><trkpt lat="51.9812129717" lon="-2.3973954655"><ele>49.16</ele><time>2014-09-10T10:18:45Z</time></trkpt><trkpt lat="51.9810070284" lon="-2.3974616826"><ele>47.72</ele><time>2014-09-10T10:19:04Z</time></trkpt><trkpt lat="51.9808721635" lon="-2.3974039312"><ele>47.72</ele><time>2014-09-10T10:19:21Z</time></trkpt><trkpt lat="51.9806770328" lon="-2.3973551486"><ele>45.32</ele><time>2014-09-10T10:19:42Z</time></trkpt><trkpt lat="51.9806595985" lon="-2.3973595072"><ele>45.80</ele><time>2014-09-10T10:19:43Z</time></trkpt><trkpt lat="51.9806321897" lon="-2.3973792884"><ele>46.28</ele><time>2014-09-10T10:19:45Z</time></trkpt><trkpt lat="51.9803881086" lon="-2.3974441644"><ele>46.28</ele><time>2014-09-10T10:20:05Z</time></trkpt><trkpt lat="51.9802965783" lon="-2.3974187672"><ele>45.32</ele><time>2014-09-10T10:20:13Z</time></trkpt><trkpt lat="51.9802741986" lon="-2.3974424880"><ele>45.80</ele><time>2014-09-10T10:20:15Z</time></trkpt><trkpt lat="51.9800252561" lon="-2.3974015005"><ele>44.84</ele><time>2014-09-10T10:20:37Z</time></trkpt><trkpt lat="51.9800074864" lon="-2.3973898496"><ele>45.32</ele><time>2014-09-10T10:20:38Z</time></trkpt><trkpt lat="51.9799268525" lon="-2.3972840700"><ele>43.88</ele><time>2014-09-10T10:20:45Z</time></trkpt><trkpt lat="51.9799024612" lon="-2.3972537275"><ele>44.84</ele><time>2014-09-10T10:20:48Z</time></trkpt><trkpt lat="51.9797018822" lon="-2.3973308410"><ele>43.40</ele><time>2014-09-10T10:21:08Z</time></trkpt><trkpt lat="51.9796755631" lon="-2.3973345291"><ele>43.40</ele><time>2014-09-10T10:21:10Z</time></trkpt><trkpt lat="51.9795116968" lon="-2.3973346129"><ele>42.92</ele><time>2014-09-10T10:21:25Z</time></trkpt><trkpt lat="51.9795047399" lon="-2.3973195255"><ele>43.40</ele><time>2014-09-10T10:21:26Z</time></trkpt><trkpt lat="51.9792747404" lon="-2.3973230459"><ele>43.88</ele><time>2014-09-10T10:21:48Z</time></trkpt><trkpt lat="51.9791477546" lon="-2.3974419851"><ele>42.92</ele><time>2014-09-10T10:22:06Z</time></trkpt><trkpt lat="51.9791082758" lon="-2.3974570725"><ele>42.44</ele><time>2014-09-10T10:22:10Z</time></trkpt><trkpt lat="51.9788304996" lon="-2.3975406401"><ele>42.44</ele><time>2014-09-10T10:22:33Z</time></trkpt><trkpt lat="51.9786051940" lon="-2.3976441566"><ele>42.92</ele><time>2014-09-10T10:22:51Z</time></trkpt><trkpt lat="51.9784708321" lon="-2.3979560472"><ele>43.40</ele><time>2014-09-10T10:23:13Z</time></trkpt><trkpt lat="51.9783665612" lon="-2.3980613239"><ele>43.40</ele><time>2014-09-10T10:23:21Z</time></trkpt><trkpt lat="51.9782447722" lon="-2.3981044069"><ele>42.92</ele><time>2014-09-10T10:23:31Z</time></trkpt><trkpt lat="51.9781040400" lon="-2.3980741482"><ele>44.36</ele><time>2014-09-10T10:23:42Z</time></trkpt><trkpt lat="51.9779384974" lon="-2.3979754094"><ele>43.88</ele><time>2014-09-10T10:24:00Z</time></trkpt><trkpt lat="51.9777706079" lon="-2.3980111163"><ele>41.47</ele><time>2014-09-10T10:24:17Z</time></trkpt><trkpt lat="51.9776763953" lon="-2.3980488349"><ele>40.51</ele><time>2014-09-10T10:24:27Z</time></trkpt><trkpt lat="51.9775020517" lon="-2.3980720527"><ele>38.59</ele><time>2014-09-10T10:24:43Z</time></trkpt><trkpt lat="51.9772729743" lon="-2.3979742359"><ele>38.11</ele><time>2014-09-10T10:25:05Z</time></trkpt><trkpt lat="51.9772034045" lon="-2.3979612440"><ele>37.15</ele><time>2014-09-10T10:25:11Z</time></trkpt><trkpt lat="51.9769450743" lon="-2.3979189992"><ele>35.23</ele><time>2014-09-10T10:25:28Z</time></trkpt><trkpt lat="51.9768847246" lon="-2.3978689592"><ele>34.74</ele><time>2014-09-10T10:25:35Z</time></trkpt><trkpt lat="51.9768670388" lon="-2.3977849726"><ele>33.78</ele><time>2014-09-10T10:25:45Z</time></trkpt><trkpt lat="51.9768168312" lon="-2.3976692185"><ele>33.30</ele><time>2014-09-10T10:26:04Z</time></trkpt><trkpt lat="51.9766017515" lon="-2.3974636942"><ele>31.86</ele><time>2014-09-10T10:26:26Z</time></trkpt><trkpt lat="51.9763780385" lon="-2.3972662166"><ele>31.38</ele><time>2014-09-10T10:26:44Z</time></trkpt><trkpt lat="51.9763200358" lon="-2.3971502949"><ele>30.42</ele><time>2014-09-10T10:26:48Z</time></trkpt><trkpt lat="51.9762359653" lon="-2.3969969898"><ele>30.42</ele><time>2014-09-10T10:26:54Z</time></trkpt><trkpt lat="51.9760627113" lon="-2.3967159446"><ele>29.94</ele><time>2014-09-10T10:27:13Z</time></trkpt><trkpt lat="51.9759533275" lon="-2.3965028767"><ele>30.42</ele><time>2014-09-10T10:27:30Z</time></trkpt><trkpt lat="51.9758412614" lon="-2.3962561134"><ele>29.94</ele><time>2014-09-10T10:27:50Z</time></trkpt><trkpt lat="51.9756922312" lon="-2.3959331587"><ele>29.46</ele><time>2014-09-10T10:28:12Z</time></trkpt><trkpt lat="51.9756824244" lon="-2.3958990443"><ele>28.98</ele><time>2014-09-10T10:28:14Z</time></trkpt><trkpt lat="51.9755683467" lon="-2.3956076894"><ele>29.94</ele><time>2014-09-10T10:28:34Z</time></trkpt><trkpt lat="51.9755029678" lon="-2.3954284843"><ele>29.46</ele><time>2014-09-10T10:28:46Z</time></trkpt><trkpt lat="51.9754356612" lon="-2.3952411488"><ele>28.50</ele><time>2014-09-10T10:28:58Z</time></trkpt><trkpt lat="51.9753434602" lon="-2.3949994147"><ele>28.02</ele><time>2014-09-10T10:29:13Z</time></trkpt><trkpt lat="51.9752825238" lon="-2.3948672321"><ele>28.02</ele><time>2014-09-10T10:29:22Z</time></trkpt><trkpt lat="51.9752350822" lon="-2.3947731033"><ele>28.02</ele><time>2014-09-10T10:29:31Z</time></trkpt><trkpt lat="51.9752047397" lon="-2.3946439382"><ele>28.02</ele><time>2014-09-10T10:29:40Z</time></trkpt><trkpt lat="51.9752015546" lon="-2.3945184611"><ele>28.02</ele><time>2014-09-10T10:29:49Z</time></trkpt><trkpt lat="51.9752080925" lon="-2.3945016973"><ele>28.98</ele><time>2014-09-10T10:29:51Z</time></trkpt><trkpt lat="51.9752198271" lon="-2.3944744561"><ele>29.94</ele><time>2014-09-10T10:29:57Z</time></trkpt><trkpt lat="51.9752270356" lon="-2.3944394197"><ele>28.50</ele><time>2014-09-10T10:29:59Z</time></trkpt><trkpt lat="51.9752271194" lon="-2.3943994381"><ele>29.46</ele><time>2014-09-10T10:30:01Z</time></trkpt><trkpt lat="51.9752076734" lon="-2.3941384256"><ele>30.42</ele><time>2014-09-10T10:30:18Z</time></trkpt><trkpt lat="51.9751748163" lon="-2.3938887287"><ele>28.98</ele><time>2014-09-10T10:30:31Z</time></trkpt><trkpt lat="51.9751743134" lon="-2.3938304745"><ele>30.90</ele><time>2014-09-10T10:30:34Z</time></trkpt><trkpt lat="51.9751812704" lon="-2.3935491778"><ele>31.86</ele><time>2014-09-10T10:30:50Z</time></trkpt><trkpt lat="51.9751531072" lon="-2.3935071006"><ele>32.34</ele><time>2014-09-10T10:31:08Z</time></trkpt><trkpt lat="51.9751111977" lon="-2.3935599905"><ele>30.42</ele><time>2014-09-10T10:31:18Z</time></trkpt><trkpt lat="51.9751018938" lon="-2.3935639299"><ele>29.46</ele><time>2014-09-10T10:31:20Z</time></trkpt><trkpt lat="51.9750603195" lon="-2.3935438134"><ele>28.50</ele><time>2014-09-10T10:31:36Z</time></trkpt><trkpt lat="51.9750291388" lon="-2.3933040909"><ele>28.98</ele><time>2014-09-10T10:31:48Z</time></trkpt><trkpt lat="51.9749871455" lon="-2.3931512889"><ele>29.46</ele><time>2014-09-10T10:32:01Z</time></trkpt><trkpt lat="51.9749814458" lon="-2.3929233011"><ele>29.94</ele><time>2014-09-10T10:32:14Z</time></trkpt><trkpt lat="51.9749862235" lon="-2.3928874265"><ele>30.90</ele><time>2014-09-10T10:32:16Z</time></trkpt><trkpt lat="51.9749530312" lon="-2.3924706783"><ele>31.86</ele><time>2014-09-10T10:32:40Z</time></trkpt><trkpt lat="51.9748860598" lon="-2.3922823370"><ele>31.86</ele><time>2014-09-10T10:32:59Z</time></trkpt><trkpt lat="51.9748174120" lon="-2.3921437841"><ele>34.74</ele><time>2014-09-10T10:33:10Z</time></trkpt><trkpt lat="51.9748077728" lon="-2.3921312112"><ele>32.82</ele><time>2014-09-10T10:33:11Z</time></trkpt><trkpt lat="51.9746961258" lon="-2.3918959312"><ele>33.78</ele><time>2014-09-10T10:33:31Z</time></trkpt><trkpt lat="51.9745769352" lon="-2.3916185740"><ele>31.86</ele><time>2014-09-10T10:33:54Z</time></trkpt><trkpt lat="51.9744460937" lon="-2.3914385308"><ele>32.34</ele><time>2014-09-10T10:34:14Z</time></trkpt><trkpt lat="51.9743361231" lon="-2.3912955355"><ele>31.86</ele><time>2014-09-10T10:34:32Z</time></trkpt><trkpt lat="51.9742841553" lon="-2.3912097048"><ele>31.86</ele><time>2014-09-10T10:34:40Z</time></trkpt><trkpt lat="51.9742048625" lon="-2.3911225330"><ele>31.38</ele><time>2014-09-10T10:35:00Z</time></trkpt><trkpt lat="51.9741821475" lon="-2.3911620118"><ele>30.90</ele><time>2014-09-10T10:35:18Z</time></trkpt><trkpt lat="51.9741720054" lon="-2.3911189288"><ele>29.94</ele><time>2014-09-10T10:35:39Z</time></trkpt><trkpt lat="51.9741575886" lon="-2.3910454195"><ele>31.38</ele><time>2014-09-10T10:35:45Z</time></trkpt><trkpt lat="51.9740052056" lon="-2.3908417393"><ele>30.42</ele><time>2014-09-10T10:36:05Z</time></trkpt><trkpt lat="51.9738792256" lon="-2.3906960618"><ele>29.94</ele><time>2014-09-10T10:36:24Z</time></trkpt><trkpt lat="51.9738898706" lon="-2.3907180224"><ele>27.53</ele><time>2014-09-10T10:36:38Z</time></trkpt><trkpt lat="51.9738754537" lon="-2.3906590138"><ele>29.94</ele><time>2014-09-10T10:36:41Z</time></trkpt><trkpt lat="51.9738440216" lon="-2.3905983288"><ele>28.98</ele><time>2014-09-10T10:36:45Z</time></trkpt><trkpt lat="51.9738100749" lon="-2.3905522283"><ele>30.42</ele><time>2014-09-10T10:36:48Z</time></trkpt><trkpt lat="51.9737095758" lon="-2.3903995939"><ele>30.42</ele><time>2014-09-10T10:36:58Z</time></trkpt><trkpt lat="51.9736048020" lon="-2.3902622145"><ele>28.50</ele><time>2014-09-10T10:37:09Z</time></trkpt><trkpt lat="51.9735731184" lon="-2.3902164493"><ele>29.94</ele><time>2014-09-10T10:37:12Z</time></trkpt><trkpt lat="51.9734724518" lon="-2.3900879547"><ele>28.98</ele><time>2014-09-10T10:37:24Z</time></trkpt><trkpt lat="51.9734075759" lon="-2.3900116794"><ele>28.98</ele><time>2014-09-10T10:37:32Z</time></trkpt><trkpt lat="51.9733761437" lon="-2.3899772298"><ele>30.42</ele><time>2014-09-10T10:37:35Z</time></trkpt><trkpt lat="51.9733136985" lon="-2.3899013735"><ele>29.46</ele><time>2014-09-10T10:37:42Z</time></trkpt><trkpt lat="51.9732079189" lon="-2.3897750583"><ele>28.98</ele><time>2014-09-10T10:37:58Z</time></trkpt><trkpt lat="51.9731972739" lon="-2.3897575401"><ele>28.50</ele><time>2014-09-10T10:38:04Z</time></trkpt><trkpt lat="51.9731474854" lon="-2.3897215817"><ele>28.50</ele><time>2014-09-10T10:38:17Z</time></trkpt><trkpt lat="51.9731279556" lon="-2.3896948434"><ele>29.46</ele><time>2014-09-10T10:38:19Z</time></trkpt><trkpt lat="51.9730730541" lon="-2.3896212503"><ele>30.42</ele><time>2014-09-10T10:38:25Z</time></trkpt><trkpt lat="51.9729642570" lon="-2.3894531932"><ele>28.98</ele><time>2014-09-10T10:38:36Z</time></trkpt><trkpt lat="51.9729112834" lon="-2.3893516045"><ele>28.50</ele><time>2014-09-10T10:38:57Z</time></trkpt><trkpt lat="51.9728678651" lon="-2.3892374430"><ele>28.02</ele><time>2014-09-10T10:39:03Z</time></trkpt><trkpt lat="51.9728378579" lon="-2.3892003950"><ele>29.46</ele><time>2014-09-10T10:39:06Z</time></trkpt><trkpt lat="51.9727534521" lon="-2.3891154863"><ele>28.50</ele><time>2014-09-10T10:39:13Z</time></trkpt><trkpt lat="51.9726700522" lon="-2.3889496922"><ele>27.53</ele><time>2014-09-10T10:39:23Z</time></trkpt><trkpt lat="51.9725679606" lon="-2.3887103051"><ele>29.46</ele><time>2014-09-10T10:39:37Z</time></trkpt><trkpt lat="51.9725467544" lon="-2.3886649590"><ele>25.13</ele><time>2014-09-10T10:39:43Z</time></trkpt><trkpt lat="51.9725371990" lon="-2.3886309285"><ele>28.50</ele><time>2014-09-10T10:39:45Z</time></trkpt><trkpt lat="51.9725221116" lon="-2.3885991611"><ele>28.02</ele><time>2014-09-10T10:39:47Z</time></trkpt><trkpt lat="51.9724370353" lon="-2.3883018550"><ele>29.94</ele><time>2014-09-10T10:40:04Z</time></trkpt><trkpt lat="51.9724289887" lon="-2.3882524855"><ele>28.02</ele><time>2014-09-10T10:40:07Z</time></trkpt><trkpt lat="51.9723988138" lon="-2.3880885355"><ele>29.46</ele><time>2014-09-10T10:40:17Z</time></trkpt><trkpt lat="51.9723824691" lon="-2.3879436124"><ele>29.46</ele><time>2014-09-10T10:40:28Z</time></trkpt><trkpt lat="51.9722880051" lon="-2.3877436202"><ele>28.02</ele><time>2014-09-10T10:40:45Z</time></trkpt><trkpt lat="51.9722619373" lon="-2.3876387626"><ele>28.02</ele><time>2014-09-10T10:40:54Z</time></trkpt><trkpt lat="51.9722322654" lon="-2.3874979466"><ele>26.57</ele><time>2014-09-10T10:41:05Z</time></trkpt><trkpt lat="51.9722217042" lon="-2.3874289636"><ele>26.57</ele><time>2014-09-10T10:41:10Z</time></trkpt><trkpt lat="51.9722207822" lon="-2.3873940948"><ele>28.50</ele><time>2014-09-10T10:41:12Z</time></trkpt><trkpt lat="51.9722160883" lon="-2.3873037379"><ele>27.53</ele><time>2014-09-10T10:41:17Z</time></trkpt><trkpt lat="51.9722216204" lon="-2.3872561287"><ele>28.50</ele><time>2014-09-10T10:41:19Z</time></trkpt><trkpt lat="51.9722148310" lon="-2.3872230202"><ele>27.05</ele><time>2014-09-10T10:41:21Z</time></trkpt><trkpt lat="51.9721248932" lon="-2.3869543802"><ele>26.09</ele><time>2014-09-10T10:41:41Z</time></trkpt><trkpt lat="51.9721062854" lon="-2.3869185895"><ele>29.46</ele><time>2014-09-10T10:41:44Z</time></trkpt><trkpt lat="51.9721109793" lon="-2.3867903464"><ele>26.57</ele><time>2014-09-10T10:41:51Z</time></trkpt><trkpt lat="51.9721002504" lon="-2.3867620155"><ele>28.50</ele><time>2014-09-10T10:41:54Z</time></trkpt><trkpt lat="51.9720258191" lon="-2.3865245562"><ele>27.05</ele><time>2014-09-10T10:42:10Z</time></trkpt><trkpt lat="51.9720123243" lon="-2.3864843231"><ele>28.02</ele><time>2014-09-10T10:42:12Z</time></trkpt><trkpt lat="51.9719485380" lon="-2.3862180300"><ele>28.02</ele><time>2014-09-10T10:42:26Z</time></trkpt><trkpt lat="51.9719422515" lon="-2.3861181177"><ele>28.98</ele><time>2014-09-10T10:42:30Z</time></trkpt><trkpt lat="51.9718535710" lon="-2.3858255893"><ele>27.53</ele><time>2014-09-10T10:42:47Z</time></trkpt><trkpt lat="51.9717760384" lon="-2.3856211547"><ele>28.98</ele><time>2014-09-10T10:43:02Z</time></trkpt><trkpt lat="51.9716971647" lon="-2.3854255211"><ele>27.53</ele><time>2014-09-10T10:43:16Z</time></trkpt><trkpt lat="51.9715639763" lon="-2.3851839546"><ele>27.05</ele><time>2014-09-10T10:43:35Z</time></trkpt><trkpt lat="51.9715637248" lon="-2.3851774167"><ele>27.53</ele><time>2014-09-10T10:43:36Z</time></trkpt><trkpt lat="51.9715716038" lon="-2.3851548694"><ele>28.98</ele><time>2014-09-10T10:43:38Z</time></trkpt><trkpt lat="51.9715807401" lon="-2.3851263709"><ele>25.61</ele><time>2014-09-10T10:43:40Z</time></trkpt><trkpt lat="51.9715818297" lon="-2.3851046618"><ele>29.46</ele><time>2014-09-10T10:43:45Z</time></trkpt><trkpt lat="51.9715694245" lon="-2.3851098586"><ele>26.57</ele><time>2014-09-10T10:43:56Z</time></trkpt><trkpt lat="51.9715401717" lon="-2.3850609921"><ele>28.02</ele><time>2014-09-10T10:44:02Z</time></trkpt><trkpt lat="51.9714794029" lon="-2.3850024864"><ele>28.02</ele><time>2014-09-10T10:44:20Z</time></trkpt><trkpt lat="51.9714794867" lon="-2.3849625885"><ele>28.50</ele><time>2014-09-10T10:44:32Z</time></trkpt><trkpt lat="51.9714348949" lon="-2.3848954495"><ele>26.09</ele><time>2014-09-10T10:44:51Z</time></trkpt><trkpt lat="51.9713976793" lon="-2.3848480079"><ele>31.38</ele><time>2014-09-10T10:45:05Z</time></trkpt><trkpt lat="51.9713990204" lon="-2.3848479241"><ele>28.50</ele><time>2014-09-10T10:45:08Z</time></trkpt><trkpt lat="51.9713873696" lon="-2.3848304059"><ele>28.50</ele><time>2014-09-10T10:45:31Z</time></trkpt><trkpt lat="51.9712776504" lon="-2.3847381212"><ele>28.02</ele><time>2014-09-10T10:45:48Z</time></trkpt><trkpt lat="51.9712416083" lon="-2.3847036716"><ele>27.53</ele><time>2014-09-10T10:45:52Z</time></trkpt><trkpt lat="51.9712017942" lon="-2.3846772686"><ele>27.53</ele><time>2014-09-10T10:45:56Z</time></trkpt><trkpt lat="51.9711401034" lon="-2.3845933657"><ele>27.53</ele><time>2014-09-10T10:46:04Z</time></trkpt><trkpt lat="51.9710376766" lon="-2.3843742628"><ele>28.50</ele><time>2014-09-10T10:46:21Z</time></trkpt><trkpt lat="51.9710360002" lon="-2.3843359575"><ele>29.46</ele><time>2014-09-10T10:46:23Z</time></trkpt><trkpt lat="51.9710841961" lon="-2.3841407429"><ele>29.94</ele><time>2014-09-10T10:46:40Z</time></trkpt><trkpt lat="51.9711434562" lon="-2.3839623760"><ele>31.38</ele><time>2014-09-10T10:46:54Z</time></trkpt><trkpt lat="51.9711955916" lon="-2.3838299420"><ele>31.86</ele><time>2014-09-10T10:47:03Z</time></trkpt><trkpt lat="51.9712188095" lon="-2.3837230727"><ele>31.86</ele><time>2014-09-10T10:47:10Z</time></trkpt><trkpt lat="51.9712592941" lon="-2.3835328873"><ele>30.90</ele><time>2014-09-10T10:47:26Z</time></trkpt><trkpt lat="51.9712653290" lon="-2.3835230805"><ele>31.86</ele><time>2014-09-10T10:47:27Z</time></trkpt><trkpt lat="51.9712975156" lon="-2.3834101763"><ele>31.86</ele><time>2014-09-10T10:47:35Z</time></trkpt><trkpt lat="51.9713283610" lon="-2.3831201624"><ele>30.90</ele><time>2014-09-10T10:47:52Z</time></trkpt><trkpt lat="51.9713550154" lon="-2.3829080164"><ele>31.38</ele><time>2014-09-10T10:48:06Z</time></trkpt><trkpt lat="51.9713428617" lon="-2.3828378599"><ele>30.90</ele><time>2014-09-10T10:48:26Z</time></trkpt><trkpt lat="51.9713012036" lon="-2.3827653565"><ele>30.42</ele><time>2014-09-10T10:48:40Z</time></trkpt><trkpt lat="51.9712869544" lon="-2.3827566393"><ele>30.42</ele><time>2014-09-10T10:49:08Z</time></trkpt><trkpt lat="51.9713184703" lon="-2.3827827908"><ele>30.90</ele><time>2014-09-10T10:49:17Z</time></trkpt><trkpt lat="51.9714308716" lon="-2.3827127181"><ele>31.38</ele><time>2014-09-10T10:49:32Z</time></trkpt><trkpt lat="51.9714987651" lon="-2.3826276418"><ele>30.90</ele><time>2014-09-10T10:49:39Z</time></trkpt><trkpt lat="51.9715830032" lon="-2.3823601753"><ele>32.34</ele><time>2014-09-10T10:49:56Z</time></trkpt><trkpt lat="51.9716054667" lon="-2.3823201098"><ele>31.38</ele><time>2014-09-10T10:49:59Z</time></trkpt><trkpt lat="51.9716351386" lon="-2.3822616879"><ele>31.86</ele><time>2014-09-10T10:50:03Z</time></trkpt><trkpt lat="51.9717346318" lon="-2.3821470235"><ele>31.86</ele><time>2014-09-10T10:50:15Z</time></trkpt><trkpt lat="51.9718404952" lon="-2.3819488753"><ele>31.86</ele><time>2014-09-10T10:50:27Z</time></trkpt><trkpt lat="51.9718793873" lon="-2.3819251545"><ele>31.86</ele><time>2014-09-10T10:50:31Z</time></trkpt><trkpt lat="51.9719906989" lon="-2.3818800598"><ele>31.86</ele><time>2014-09-10T10:50:42Z</time></trkpt><trkpt lat="51.9720206223" lon="-2.3818637989"><ele>32.34</ele><time>2014-09-10T10:50:45Z</time></trkpt><trkpt lat="51.9721034355" lon="-2.3817976657"><ele>30.90</ele><time>2014-09-10T10:50:55Z</time></trkpt><trkpt lat="51.9721504580" lon="-2.3817332927"><ele>32.82</ele><time>2014-09-10T10:50:59Z</time></trkpt><trkpt lat="51.9722663797" lon="-2.3816085700"><ele>30.90</ele><time>2014-09-10T10:51:09Z</time></trkpt><trkpt lat="51.9723566528" lon="-2.3814736214"><ele>31.38</ele><time>2014-09-10T10:51:19Z</time></trkpt><trkpt lat="51.9723903481" lon="-2.3814439494"><ele>30.90</ele><time>2014-09-10T10:51:22Z</time></trkpt><trkpt lat="51.9725385401" lon="-2.3813078273"><ele>30.90</ele><time>2014-09-10T10:51:34Z</time></trkpt><trkpt lat="51.9726655260" lon="-2.3812355753"><ele>30.42</ele><time>2014-09-10T10:51:44Z</time></trkpt><trkpt lat="51.9727122970" lon="-2.3811717890"><ele>31.38</ele><time>2014-09-10T10:51:48Z</time></trkpt><trkpt lat="51.9727889076" lon="-2.3810958490"><ele>30.42</ele><time>2014-09-10T10:51:55Z</time></trkpt><trkpt lat="51.9728394505" lon="-2.3810355831"><ele>31.38</ele><time>2014-09-10T10:51:59Z</time></trkpt><trkpt lat="51.9729525223" lon="-2.3809265345"><ele>30.42</ele><time>2014-09-10T10:52:09Z</time></trkpt><trkpt lat="51.9729675259" lon="-2.3809137102"><ele>30.90</ele><time>2014-09-10T10:52:10Z</time></trkpt><trkpt lat="51.9730311446" lon="-2.3807880655"><ele>30.90</ele><time>2014-09-10T10:52:17Z</time></trkpt><trkpt lat="51.9730299711" lon="-2.3807497602"><ele>30.90</ele><time>2014-09-10T10:52:22Z</time></trkpt><trkpt lat="51.9731242675" lon="-2.3806170747"><ele>30.90</ele><time>2014-09-10T10:52:33Z</time></trkpt><trkpt lat="51.9732580427" lon="-2.3804794438"><ele>31.86</ele><time>2014-09-10T10:52:45Z</time></trkpt><trkpt lat="51.9733711984" lon="-2.3803373706"><ele>32.34</ele><time>2014-09-10T10:52:58Z</time></trkpt><trkpt lat="51.9734473899" lon="-2.3802211974"><ele>31.86</ele><time>2014-09-10T10:53:08Z</time></trkpt><trkpt lat="51.9734536763" lon="-2.3801877536"><ele>33.30</ele><time>2014-09-10T10:53:10Z</time></trkpt><trkpt lat="51.9735155348" lon="-2.3800503742"><ele>32.82</ele><time>2014-09-10T10:53:23Z</time></trkpt><trkpt lat="51.9735606294" lon="-2.3800021783"><ele>33.30</ele><time>2014-09-10T10:53:38Z</time></trkpt><trkpt lat="51.9735801592" lon="-2.3800288327"><ele>32.82</ele><time>2014-09-10T10:53:56Z</time></trkpt><trkpt lat="51.9735343941" lon="-2.3800093029"><ele>33.30</ele><time>2014-09-10T10:54:10Z</time></trkpt><trkpt lat="51.9735124335" lon="-2.3799731769"><ele>33.78</ele><time>2014-09-10T10:54:13Z</time></trkpt><trkpt lat="51.9734843541" lon="-2.3798814788"><ele>33.30</ele><time>2014-09-10T10:54:29Z</time></trkpt><trkpt lat="51.9734950829" lon="-2.3798902798"><ele>33.30</ele><time>2014-09-10T10:54:48Z</time></trkpt><trkpt lat="51.9734968431" lon="-2.3798549082"><ele>34.26</ele><time>2014-09-10T10:55:00Z</time></trkpt><trkpt lat="51.9735001959" lon="-2.3797318619"><ele>32.34</ele><time>2014-09-10T10:55:05Z</time></trkpt><trkpt lat="51.9735046383" lon="-2.3797061294"><ele>30.42</ele><time>2014-09-10T10:55:06Z</time></trkpt><trkpt lat="51.9735132717" lon="-2.3796534911"><ele>32.82</ele><time>2014-09-10T10:55:08Z</time></trkpt><trkpt lat="51.9735693466" lon="-2.3793242499"><ele>32.82</ele><time>2014-09-10T10:55:23Z</time></trkpt><trkpt lat="51.9736177940" lon="-2.3790100962"><ele>35.23</ele><time>2014-09-10T10:55:37Z</time></trkpt><trkpt lat="51.9736369886" lon="-2.3788842838"><ele>34.74</ele><time>2014-09-10T10:55:43Z</time></trkpt><trkpt lat="51.9736291934" lon="-2.3787148017"><ele>35.23</ele><time>2014-09-10T10:55:56Z</time></trkpt><trkpt lat="51.9736422691" lon="-2.3785804398"><ele>35.23</ele><time>2014-09-10T10:56:12Z</time></trkpt><trkpt lat="51.9736783952" lon="-2.3782807868"><ele>34.74</ele><time>2014-09-10T10:56:25Z</time></trkpt><trkpt lat="51.9736818317" lon="-2.3782128096"><ele>36.19</ele><time>2014-09-10T10:56:28Z</time></trkpt><trkpt lat="51.9737068936" lon="-2.3780123144"><ele>36.19</ele><time>2014-09-10T10:56:42Z</time></trkpt><trkpt lat="51.9737045467" lon="-2.3780187685"><ele>36.19</ele><time>2014-09-10T10:57:06Z</time></trkpt><trkpt lat="51.9737195503" lon="-2.3780208640"><ele>36.19</ele><time>2014-09-10T10:57:32Z</time></trkpt><trkpt lat="51.9737195503" lon="-2.3779124860"><ele>36.67</ele><time>2014-09-10T10:57:47Z</time></trkpt><trkpt lat="51.9737405889" lon="-2.3777181096"><ele>36.67</ele><time>2014-09-10T10:57:56Z</time></trkpt><trkpt lat="51.9737571850" lon="-2.3775814846"><ele>36.67</ele><time>2014-09-10T10:58:07Z</time></trkpt><trkpt lat="51.9737707637" lon="-2.3774339631"><ele>36.19</ele><time>2014-09-10T10:58:26Z</time></trkpt><trkpt lat="51.9738667365" lon="-2.3772253376"><ele>36.67</ele><time>2014-09-10T10:58:45Z</time></trkpt><trkpt lat="51.9738856796" lon="-2.3770166282"><ele>36.67</ele><time>2014-09-10T10:59:01Z</time></trkpt><trkpt lat="51.9739050418" lon="-2.3768341541"><ele>35.71</ele><time>2014-09-10T10:59:20Z</time></trkpt><trkpt lat="51.9739517290" lon="-2.3764101136"><ele>37.63</ele><time>2014-09-10T10:59:40Z</time></trkpt><trkpt lat="51.9740186166" lon="-2.3761627637"><ele>38.11</ele><time>2014-09-10T10:59:58Z</time></trkpt><trkpt lat="51.9740552455" lon="-2.3758658767"><ele>37.63</ele><time>2014-09-10T11:00:13Z</time></trkpt><trkpt lat="51.9741067942" lon="-2.3755457718"><ele>39.07</ele><time>2014-09-10T11:00:32Z</time></trkpt><trkpt lat="51.9741482846" lon="-2.3752333783"><ele>39.07</ele><time>2014-09-10T11:00:51Z</time></trkpt><trkpt lat="51.9741956424" lon="-2.3750788998"><ele>39.55</ele><time>2014-09-10T11:01:08Z</time></trkpt><trkpt lat="51.9742010068" lon="-2.3748328071"><ele>39.55</ele><time>2014-09-10T11:01:27Z</time></trkpt><trkpt lat="51.9742204528" lon="-2.3747091740"><ele>40.03</ele><time>2014-09-10T11:01:46Z</time></trkpt><trkpt lat="51.9741411600" lon="-2.3742117919"><ele>40.51</ele><time>2014-09-10T11:02:05Z</time></trkpt><trkpt lat="51.9741348736" lon="-2.3741739057"><ele>40.03</ele><time>2014-09-10T11:02:07Z</time></trkpt><trkpt lat="51.9741555769" lon="-2.3741342593"><ele>40.51</ele><time>2014-09-10T11:02:15Z</time></trkpt><trkpt lat="51.9740658067" lon="-2.3736995738"><ele>42.44</ele><time>2014-09-10T11:02:35Z</time></trkpt><trkpt lat="51.9740390684" lon="-2.3735034373"><ele>42.92</ele><time>2014-09-10T11:02:50Z</time></trkpt><trkpt lat="51.9740598556" lon="-2.3732793052"><ele>43.40</ele><time>2014-09-10T11:03:09Z</time></trkpt><trkpt lat="51.9740607776" lon="-2.3732696660"><ele>43.40</ele><time>2014-09-10T11:03:13Z</time></trkpt><trkpt lat="51.9740891084" lon="-2.3730245791"><ele>44.36</ele><time>2014-09-10T11:03:30Z</time></trkpt><trkpt lat="51.9740852527" lon="-2.3729646485"><ele>43.88</ele><time>2014-09-10T11:03:41Z</time></trkpt><trkpt lat="51.9740782958" lon="-2.3728936538"><ele>45.32</ele><time>2014-09-10T11:03:47Z</time></trkpt><trkpt lat="51.9740854204" lon="-2.3725493252"><ele>44.84</ele><time>2014-09-10T11:04:05Z</time></trkpt><trkpt lat="51.9741086382" lon="-2.3724335711"><ele>45.32</ele><time>2014-09-10T11:04:11Z</time></trkpt><trkpt lat="51.9741875120" lon="-2.3719722312"><ele>46.28</ele><time>2014-09-10T11:04:31Z</time></trkpt><trkpt lat="51.9741921220" lon="-2.3716417328"><ele>47.72</ele><time>2014-09-10T11:04:50Z</time></trkpt><trkpt lat="51.9741848297" lon="-2.3712416645"><ele>47.24</ele><time>2014-09-10T11:05:10Z</time></trkpt><trkpt lat="51.9741926249" lon="-2.3711462785"><ele>48.20</ele><time>2014-09-10T11:05:15Z</time></trkpt><trkpt lat="51.9742081314" lon="-2.3708959948"><ele>48.20</ele><time>2014-09-10T11:05:31Z</time></trkpt><trkpt lat="51.9742058683" lon="-2.3705937434"><ele>49.16</ele><time>2014-09-10T11:05:48Z</time></trkpt><trkpt lat="51.9742077962" lon="-2.3703752272"><ele>49.65</ele><time>2014-09-10T11:06:08Z</time></trkpt><trkpt lat="51.9742469396" lon="-2.3700940982"><ele>50.61</ele><time>2014-09-10T11:06:27Z</time></trkpt><trkpt lat="51.9743167609" lon="-2.3698530346"><ele>50.61</ele><time>2014-09-10T11:06:44Z</time></trkpt><trkpt lat="51.9743849058" lon="-2.3695273977"><ele>50.13</ele><time>2014-09-10T11:07:04Z</time></trkpt><trkpt lat="51.9745548908" lon="-2.3692465201"><ele>52.05</ele><time>2014-09-10T11:07:24Z</time></trkpt><trkpt lat="51.9746292382" lon="-2.3691319395"><ele>51.57</ele><time>2014-09-10T11:07:40Z</time></trkpt><trkpt lat="51.9746516179" lon="-2.3690795526"><ele>46.28</ele><time>2014-09-10T11:07:45Z</time></trkpt><trkpt lat="51.9746561442" lon="-2.3690714221"><ele>55.89</ele><time>2014-09-10T11:07:46Z</time></trkpt><trkpt lat="51.9746581558" lon="-2.3690648843"><ele>46.28</ele><time>2014-09-10T11:07:47Z</time></trkpt><trkpt lat="51.9746587425" lon="-2.3690645490"><ele>52.53</ele><time>2014-09-10T11:07:48Z</time></trkpt><trkpt lat="51.9746772666" lon="-2.3690506350"><ele>53.97</ele><time>2014-09-10T11:07:50Z</time></trkpt><trkpt lat="51.9747047592" lon="-2.3690081388"><ele>53.01</ele><time>2014-09-10T11:07:52Z</time></trkpt><trkpt lat="51.9748317450" lon="-2.3687573522"><ele>53.97</ele><time>2014-09-10T11:08:09Z</time></trkpt><trkpt lat="51.9749119598" lon="-2.3686640617"><ele>54.93</ele><time>2014-09-10T11:08:18Z</time></trkpt><trkpt lat="51.9750280492" lon="-2.3684100062"><ele>54.45</ele><time>2014-09-10T11:08:38Z</time></trkpt><trkpt lat="51.9751251116" lon="-2.3682665080"><ele>56.37</ele><time>2014-09-10T11:08:57Z</time></trkpt><trkpt lat="51.9751689490" lon="-2.3679623287"><ele>56.86</ele><time>2014-09-10T11:09:14Z</time></trkpt><trkpt lat="51.9752219226" lon="-2.3677072674"><ele>56.86</ele><time>2014-09-10T11:09:35Z</time></trkpt><trkpt lat="51.9753444660" lon="-2.3674694728"><ele>57.82</ele><time>2014-09-10T11:09:57Z</time></trkpt><trkpt lat="51.9753730483" lon="-2.3673817981"><ele>59.74</ele><time>2014-09-10T11:10:21Z</time></trkpt><trkpt lat="51.9755910616" lon="-2.3671095539"><ele>61.18</ele><time>2014-09-10T11:10:37Z</time></trkpt><trkpt lat="51.9755768962" lon="-2.3671031836"><ele>58.78</ele><time>2014-09-10T11:10:59Z</time></trkpt><trkpt lat="51.9755981863" lon="-2.3670697398"><ele>62.62</ele><time>2014-09-10T11:11:06Z</time></trkpt><trkpt lat="51.9756530877" lon="-2.3670477793"><ele>58.78</ele><time>2014-09-10T11:11:13Z</time></trkpt><trkpt lat="51.9756737072" lon="-2.3670166824"><ele>62.14</ele><time>2014-09-10T11:11:15Z</time></trkpt><trkpt lat="51.9757120963" lon="-2.3669414967"><ele>61.18</ele><time>2014-09-10T11:11:19Z</time></trkpt><trkpt lat="51.9757231604" lon="-2.3668047879"><ele>63.10</ele><time>2014-09-10T11:11:31Z</time></trkpt><trkpt lat="51.9756720308" lon="-2.3667068034"><ele>61.66</ele><time>2014-09-10T11:11:36Z</time></trkpt><trkpt lat="51.9755145349" lon="-2.3664608784"><ele>65.03</ele><time>2014-09-10T11:11:55Z</time></trkpt><trkpt lat="51.9754468929" lon="-2.3663590383"><ele>68.39</ele><time>2014-09-10T11:12:11Z</time></trkpt><trkpt lat="51.9752900675" lon="-2.3661690205"><ele>66.47</ele><time>2014-09-10T11:12:31Z</time></trkpt><trkpt lat="51.9752834458" lon="-2.3661614768"><ele>66.95</ele><time>2014-09-10T11:12:32Z</time></trkpt><trkpt lat="51.9752709568" lon="-2.3661388457"><ele>68.39</ele><time>2014-09-10T11:12:34Z</time></trkpt><trkpt lat="51.9752401952" lon="-2.3661000375"><ele>68.39</ele><time>2014-09-10T11:12:51Z</time></trkpt><trkpt lat="51.9752396084" lon="-2.3660850339"><ele>67.91</ele><time>2014-09-10T11:12:55Z</time></trkpt><trkpt lat="51.9751453120" lon="-2.3660194036"><ele>68.39</ele><time>2014-09-10T11:13:08Z</time></trkpt><trkpt lat="51.9751188252" lon="-2.3659963533"><ele>67.91</ele><time>2014-09-10T11:13:12Z</time></trkpt><trkpt lat="51.9750139676" lon="-2.3658732232"><ele>66.95</ele><time>2014-09-10T11:13:26Z</time></trkpt><trkpt lat="51.9749161508" lon="-2.3657421302"><ele>66.47</ele><time>2014-09-10T11:13:41Z</time></trkpt><trkpt lat="51.9748578127" lon="-2.3656977899"><ele>66.47</ele><time>2014-09-10T11:14:02Z</time></trkpt><trkpt lat="51.9748186693" lon="-2.3656339198"><ele>65.99</ele><time>2014-09-10T11:14:08Z</time></trkpt><trkpt lat="51.9747974630" lon="-2.3656027392"><ele>66.47</ele><time>2014-09-10T11:14:10Z</time></trkpt><trkpt lat="51.9747604150" lon="-2.3654425610"><ele>65.03</ele><time>2014-09-10T11:14:20Z</time></trkpt><trkpt lat="51.9748226088" lon="-2.3653425649"><ele>65.51</ele><time>2014-09-10T11:14:28Z</time></trkpt><trkpt lat="51.9749426376" lon="-2.3651848175"><ele>66.47</ele><time>2014-09-10T11:14:40Z</time></trkpt><trkpt lat="51.9749525283" lon="-2.3651569057"><ele>65.99</ele><time>2014-09-10T11:14:42Z</time></trkpt><trkpt lat="51.9750273786" lon="-2.3650175147"><ele>66.95</ele><time>2014-09-10T11:14:50Z</time></trkpt><trkpt lat="51.9751158915" lon="-2.3648860026"><ele>66.47</ele><time>2014-09-10T11:14:59Z</time></trkpt><trkpt lat="51.9752596412" lon="-2.3647062108"><ele>67.43</ele><time>2014-09-10T11:15:12Z</time></trkpt><trkpt lat="51.9752971083" lon="-2.3646591045"><ele>67.43</ele><time>2014-09-10T11:15:15Z</time></trkpt><trkpt lat="51.9754130300" lon="-2.3644863535"><ele>67.43</ele><time>2014-09-10T11:15:27Z</time></trkpt><trkpt lat="51.9754563645" lon="-2.3644190468"><ele>67.43</ele><time>2014-09-10T11:15:31Z</time></trkpt><trkpt lat="51.9754854497" lon="-2.3643859383"><ele>67.91</ele><time>2014-09-10T11:15:34Z</time></trkpt><trkpt lat="51.9755872060" lon="-2.3642096668"><ele>68.39</ele><time>2014-09-10T11:15:46Z</time></trkpt><trkpt lat="51.9756705221" lon="-2.3640812561"><ele>67.91</ele><time>2014-09-10T11:15:55Z</time></trkpt><trkpt lat="51.9757621363" lon="-2.3639225867"><ele>67.43</ele><time>2014-09-10T11:16:07Z</time></trkpt><trkpt lat="51.9758146908" lon="-2.3638527654"><ele>68.39</ele><time>2014-09-10T11:16:13Z</time></trkpt><trkpt lat="51.9758399203" lon="-2.3638068326"><ele>68.39</ele><time>2014-09-10T11:16:16Z</time></trkpt><trkpt lat="51.9758783933" lon="-2.3637549486"><ele>68.39</ele><time>2014-09-10T11:16:20Z</time></trkpt><trkpt lat="51.9759284332" lon="-2.3636815231"><ele>68.39</ele><time>2014-09-10T11:16:25Z</time></trkpt><trkpt lat="51.9759613741" lon="-2.3636381887"><ele>67.91</ele><time>2014-09-10T11:16:29Z</time></trkpt><trkpt lat="51.9760637172" lon="-2.3635083530"><ele>68.87</ele><time>2014-09-10T11:16:40Z</time></trkpt><trkpt lat="51.9761021063" lon="-2.3634474166"><ele>68.39</ele><time>2014-09-10T11:16:45Z</time></trkpt><trkpt lat="51.9761885237" lon="-2.3633636814"><ele>68.87</ele><time>2014-09-10T11:16:54Z</time></trkpt><trkpt lat="51.9762071315" lon="-2.3633473366"><ele>68.87</ele><time>2014-09-10T11:16:56Z</time></trkpt><trkpt lat="51.9762750249" lon="-2.3632757552"><ele>68.87</ele><time>2014-09-10T11:17:03Z</time></trkpt><trkpt lat="51.9763507973" lon="-2.3631754238"><ele>68.87</ele><time>2014-09-10T11:17:12Z</time></trkpt><trkpt lat="51.9765218720" lon="-2.3630372062"><ele>69.35</ele><time>2014-09-10T11:17:28Z</time></trkpt><trkpt lat="51.9766276516" lon="-2.3629682232"><ele>68.87</ele><time>2014-09-10T11:17:38Z</time></trkpt><trkpt lat="51.9766528811" lon="-2.3629496153"><ele>69.83</ele><time>2014-09-10T11:17:41Z</time></trkpt><trkpt lat="51.9768051803" lon="-2.3628243059"><ele>69.35</ele><time>2014-09-10T11:17:57Z</time></trkpt><trkpt lat="51.9769579824" lon="-2.3627235554"><ele>68.39</ele><time>2014-09-10T11:18:10Z</time></trkpt><trkpt lat="51.9770696294" lon="-2.3626627028"><ele>68.39</ele><time>2014-09-10T11:18:19Z</time></trkpt><trkpt lat="51.9771730620" lon="-2.3626193684"><ele>67.91</ele><time>2014-09-10T11:18:28Z</time></trkpt><trkpt lat="51.9774001278" lon="-2.3625750281"><ele>67.91</ele><time>2014-09-10T11:18:46Z</time></trkpt><trkpt lat="51.9774582982" lon="-2.3625585996"><ele>68.39</ele><time>2014-09-10T11:18:50Z</time></trkpt><trkpt lat="51.9776156265" lon="-2.3624730203"><ele>68.87</ele><time>2014-09-10T11:19:05Z</time></trkpt><trkpt lat="51.9777881261" lon="-2.3623900395"><ele>68.87</ele><time>2014-09-10T11:19:20Z</time></trkpt><trkpt lat="51.9779255893" lon="-2.3623521533"><ele>68.39</ele><time>2014-09-10T11:19:31Z</time></trkpt><trkpt lat="51.9779609609" lon="-2.3623474594"><ele>68.87</ele><time>2014-09-10T11:19:34Z</time></trkpt><trkpt lat="51.9780963287" lon="-2.3622298613"><ele>69.35</ele><time>2014-09-10T11:19:48Z</time></trkpt><trkpt lat="51.9781011902" lon="-2.3621372413"><ele>70.79</ele><time>2014-09-10T11:19:56Z</time></trkpt><trkpt lat="51.9781156071" lon="-2.3620445374"><ele>70.79</ele><time>2014-09-10T11:20:00Z</time></trkpt><trkpt lat="51.9781171996" lon="-2.3618940823"><ele>70.79</ele><time>2014-09-10T11:20:07Z</time></trkpt><trkpt lat="51.9780888688" lon="-2.3618092574"><ele>69.83</ele><time>2014-09-10T11:20:16Z</time></trkpt><trkpt lat="51.9780721888" lon="-2.3616661783"><ele>69.83</ele><time>2014-09-10T11:20:24Z</time></trkpt><trkpt lat="51.9780576881" lon="-2.3614987917"><ele>69.83</ele><time>2014-09-10T11:20:33Z</time></trkpt><trkpt lat="51.9780066423" lon="-2.3612747435"><ele>68.87</ele><time>2014-09-10T11:20:46Z</time></trkpt><trkpt lat="51.9779996853" lon="-2.3612565547"><ele>68.87</ele><time>2014-09-10T11:20:47Z</time></trkpt><trkpt lat="51.9779358152" lon="-2.3610382061"><ele>68.39</ele><time>2014-09-10T11:21:00Z</time></trkpt><trkpt lat="51.9778960850" lon="-2.3609518725"><ele>68.87</ele><time>2014-09-10T11:21:13Z</time></trkpt><trkpt lat="51.9778793212" lon="-2.3609415628"><ele>68.87</ele><time>2014-09-10T11:21:25Z</time></trkpt><trkpt lat="51.9778754655" lon="-2.3609581590"><ele>67.91</ele><time>2014-09-10T11:21:41Z</time></trkpt><trkpt lat="51.9778731186" lon="-2.3609628528"><ele>68.87</ele><time>2014-09-10T11:21:50Z</time></trkpt></trkseg></trk></gpx>